<?xml version="1.0" encoding="UTF-8" standalone="no" ?>
<gpx xmlns="http://www.topografix.com/GPX/1/1" xmlns:xsi="http://www.w3.org/2001/XMLSchema-instance" xsi:schemaLocation="http://www.topografix.com/GPX/1/1 http://www.topografix.com/GPX/1/1/gpx.xsd" version="1.1" creator="VisuGPX - https://www.visugpx.com">
  <metadata>
    <name>ST NOLFF 10km</name>
    <desc><![CDATA[voiture prés de l\'église, même circuit que celui de 9 que l\'on peut supprimer et garder que celui-ci qui me semble plus complet.]]></desc>
  </metadata>
  <trk>
    <name><![CDATA[ST NOLFF 10km_1]]></name>
    <trkseg>
      <trkpt lat="47.70317" lon="-2.65087">
        <ele>61</ele>
        <time>2013-04-17T12:34:31</time>
      </trkpt>
      <trkpt lat="47.70317" lon="-2.65085">
        <ele>51</ele>
        <time>2013-04-17T12:34:40</time>
      </trkpt>
      <trkpt lat="47.70318" lon="-2.65084">
        <ele>50</ele>
        <time>2013-04-17T12:34:50</time>
      </trkpt>
      <trkpt lat="47.70318" lon="-2.65083">
        <ele>49</ele>
        <time>2013-04-17T12:35:00</time>
      </trkpt>
      <trkpt lat="47.70319" lon="-2.6508">
        <ele>50</ele>
        <time>2013-04-17T12:35:10</time>
      </trkpt>
      <trkpt lat="47.70319" lon="-2.6508">
        <ele>51</ele>
        <time>2013-04-17T12:35:20</time>
      </trkpt>
      <trkpt lat="47.70319" lon="-2.65081">
        <ele>51</ele>
        <time>2013-04-17T12:35:30</time>
      </trkpt>
      <trkpt lat="47.70319" lon="-2.65082">
        <ele>51</ele>
        <time>2013-04-17T12:35:40</time>
      </trkpt>
      <trkpt lat="47.70319" lon="-2.65081">
        <ele>51</ele>
        <time>2013-04-17T12:35:51</time>
      </trkpt>
      <trkpt lat="47.70319" lon="-2.65081">
        <ele>51</ele>
        <time>2013-04-17T12:36:01</time>
      </trkpt>
      <trkpt lat="47.70319" lon="-2.65082">
        <ele>52</ele>
        <time>2013-04-17T12:36:11</time>
      </trkpt>
      <trkpt lat="47.70318" lon="-2.65084">
        <ele>51</ele>
        <time>2013-04-17T12:36:21</time>
      </trkpt>
      <trkpt lat="47.70317" lon="-2.65087">
        <ele>50</ele>
        <time>2013-04-17T12:36:31</time>
      </trkpt>
      <trkpt lat="47.70316" lon="-2.65091">
        <ele>50</ele>
        <time>2013-04-17T12:36:41</time>
      </trkpt>
      <trkpt lat="47.70314" lon="-2.651">
        <ele>50</ele>
        <time>2013-04-17T12:36:51</time>
      </trkpt>
      <trkpt lat="47.70314" lon="-2.65116">
        <ele>51</ele>
        <time>2013-04-17T12:37:01</time>
      </trkpt>
      <trkpt lat="47.70319" lon="-2.6512">
        <ele>51</ele>
        <time>2013-04-17T12:37:11</time>
      </trkpt>
      <trkpt lat="47.70323" lon="-2.65139">
        <ele>51</ele>
        <time>2013-04-17T12:37:21</time>
      </trkpt>
      <trkpt lat="47.70319" lon="-2.65152">
        <ele>51</ele>
        <time>2013-04-17T12:37:31</time>
      </trkpt>
      <trkpt lat="47.70316" lon="-2.65167">
        <ele>49</ele>
        <time>2013-04-17T12:37:41</time>
      </trkpt>
      <trkpt lat="47.70312" lon="-2.6518">
        <ele>51</ele>
        <time>2013-04-17T12:37:51</time>
      </trkpt>
      <trkpt lat="47.70314" lon="-2.65199">
        <ele>50</ele>
        <time>2013-04-17T12:38:02</time>
      </trkpt>
      <trkpt lat="47.70315" lon="-2.65208">
        <ele>51</ele>
        <time>2013-04-17T12:38:12</time>
      </trkpt>
      <trkpt lat="47.70316" lon="-2.65222">
        <ele>51</ele>
        <time>2013-04-17T12:38:22</time>
      </trkpt>
      <trkpt lat="47.70312" lon="-2.65242">
        <ele>50</ele>
        <time>2013-04-17T12:38:32</time>
      </trkpt>
      <trkpt lat="47.70304" lon="-2.65253">
        <ele>51</ele>
        <time>2013-04-17T12:38:42</time>
      </trkpt>
      <trkpt lat="47.70301" lon="-2.65264">
        <ele>50</ele>
        <time>2013-04-17T12:38:52</time>
      </trkpt>
      <trkpt lat="47.70305" lon="-2.65278">
        <ele>49</ele>
        <time>2013-04-17T12:39:02</time>
      </trkpt>
      <trkpt lat="47.70305" lon="-2.65297">
        <ele>49</ele>
        <time>2013-04-17T12:39:12</time>
      </trkpt>
      <trkpt lat="47.70306" lon="-2.65309">
        <ele>49</ele>
        <time>2013-04-17T12:39:22</time>
      </trkpt>
      <trkpt lat="47.70313" lon="-2.65319">
        <ele>50</ele>
        <time>2013-04-17T12:39:32</time>
      </trkpt>
      <trkpt lat="47.70315" lon="-2.65339">
        <ele>50</ele>
        <time>2013-04-17T12:39:42</time>
      </trkpt>
      <trkpt lat="47.70306" lon="-2.65357">
        <ele>49</ele>
        <time>2013-04-17T12:39:52</time>
      </trkpt>
      <trkpt lat="47.703" lon="-2.65365">
        <ele>50</ele>
        <time>2013-04-17T12:40:03</time>
      </trkpt>
      <trkpt lat="47.70301" lon="-2.6538">
        <ele>51</ele>
        <time>2013-04-17T12:40:13</time>
      </trkpt>
      <trkpt lat="47.70305" lon="-2.65405">
        <ele>49</ele>
        <time>2013-04-17T12:40:23</time>
      </trkpt>
      <trkpt lat="47.70301" lon="-2.6542">
        <ele>49</ele>
        <time>2013-04-17T12:40:33</time>
      </trkpt>
      <trkpt lat="47.70301" lon="-2.65435">
        <ele>50</ele>
        <time>2013-04-17T12:40:43</time>
      </trkpt>
      <trkpt lat="47.7031" lon="-2.65446">
        <ele>50</ele>
        <time>2013-04-17T12:40:53</time>
      </trkpt>
      <trkpt lat="47.70314" lon="-2.65463">
        <ele>49</ele>
        <time>2013-04-17T12:41:03</time>
      </trkpt>
      <trkpt lat="47.70308" lon="-2.65478">
        <ele>49</ele>
        <time>2013-04-17T12:41:13</time>
      </trkpt>
      <trkpt lat="47.70303" lon="-2.65491">
        <ele>50</ele>
        <time>2013-04-17T12:41:23</time>
      </trkpt>
      <trkpt lat="47.70296" lon="-2.65508">
        <ele>50</ele>
        <time>2013-04-17T12:41:33</time>
      </trkpt>
      <trkpt lat="47.70291" lon="-2.65524">
        <ele>50</ele>
        <time>2013-04-17T12:41:44</time>
      </trkpt>
      <trkpt lat="47.70285" lon="-2.65539">
        <ele>50</ele>
        <time>2013-04-17T12:41:54</time>
      </trkpt>
      <trkpt lat="47.70279" lon="-2.6555">
        <ele>49</ele>
        <time>2013-04-17T12:42:04</time>
      </trkpt>
      <trkpt lat="47.70274" lon="-2.65559">
        <ele>49</ele>
        <time>2013-04-17T12:42:14</time>
      </trkpt>
      <trkpt lat="47.70274" lon="-2.65579">
        <ele>49</ele>
        <time>2013-04-17T12:42:24</time>
      </trkpt>
      <trkpt lat="47.70271" lon="-2.65599">
        <ele>49</ele>
        <time>2013-04-17T12:42:34</time>
      </trkpt>
      <trkpt lat="47.70269" lon="-2.65619">
        <ele>49</ele>
        <time>2013-04-17T12:42:44</time>
      </trkpt>
      <trkpt lat="47.70271" lon="-2.65636">
        <ele>50</ele>
        <time>2013-04-17T12:42:54</time>
      </trkpt>
      <trkpt lat="47.70271" lon="-2.65654">
        <ele>49</ele>
        <time>2013-04-17T12:43:04</time>
      </trkpt>
      <trkpt lat="47.70269" lon="-2.65669">
        <ele>49</ele>
        <time>2013-04-17T12:43:14</time>
      </trkpt>
      <trkpt lat="47.70265" lon="-2.65688">
        <ele>49</ele>
        <time>2013-04-17T12:43:24</time>
      </trkpt>
      <trkpt lat="47.70267" lon="-2.65706">
        <ele>48</ele>
        <time>2013-04-17T12:43:34</time>
      </trkpt>
      <trkpt lat="47.70274" lon="-2.65721">
        <ele>49</ele>
        <time>2013-04-17T12:43:44</time>
      </trkpt>
      <trkpt lat="47.7028" lon="-2.6574">
        <ele>49</ele>
        <time>2013-04-17T12:43:55</time>
      </trkpt>
      <trkpt lat="47.70287" lon="-2.65755">
        <ele>49</ele>
        <time>2013-04-17T12:44:05</time>
      </trkpt>
      <trkpt lat="47.70296" lon="-2.65769">
        <ele>48</ele>
        <time>2013-04-17T12:44:15</time>
      </trkpt>
      <trkpt lat="47.70298" lon="-2.65788">
        <ele>49</ele>
        <time>2013-04-17T12:44:25</time>
      </trkpt>
      <trkpt lat="47.70293" lon="-2.65804">
        <ele>48</ele>
        <time>2013-04-17T12:44:35</time>
      </trkpt>
      <trkpt lat="47.70287" lon="-2.65818">
        <ele>49</ele>
        <time>2013-04-17T12:44:45</time>
      </trkpt>
      <trkpt lat="47.70292" lon="-2.65832">
        <ele>49</ele>
        <time>2013-04-17T12:44:55</time>
      </trkpt>
      <trkpt lat="47.70294" lon="-2.65829">
        <ele>50</ele>
        <time>2013-04-17T12:45:05</time>
      </trkpt>
      <trkpt lat="47.70293" lon="-2.6583">
        <ele>48</ele>
        <time>2013-04-17T12:45:15</time>
      </trkpt>
      <trkpt lat="47.70293" lon="-2.6583">
        <ele>46</ele>
        <time>2013-04-17T12:45:25</time>
      </trkpt>
      <trkpt lat="47.70293" lon="-2.65831">
        <ele>45</ele>
        <time>2013-04-17T12:45:35</time>
      </trkpt>
      <trkpt lat="47.70291" lon="-2.65835">
        <ele>45</ele>
        <time>2013-04-17T12:45:45</time>
      </trkpt>
      <trkpt lat="47.7029" lon="-2.65837">
        <ele>44</ele>
        <time>2013-04-17T12:45:55</time>
      </trkpt>
      <trkpt lat="47.70379" lon="-2.65828">
        <ele>45</ele>
        <time>2013-04-17T12:46:06</time>
      </trkpt>
      <trkpt lat="47.70383" lon="-2.65833">
        <ele>45</ele>
        <time>2013-04-17T12:46:16</time>
      </trkpt>
      <trkpt lat="47.7039" lon="-2.65843">
        <ele>44</ele>
        <time>2013-04-17T12:46:26</time>
      </trkpt>
      <trkpt lat="47.704" lon="-2.65857">
        <ele>44</ele>
        <time>2013-04-17T12:46:36</time>
      </trkpt>
      <trkpt lat="47.70407" lon="-2.65867">
        <ele>45</ele>
        <time>2013-04-17T12:46:46</time>
      </trkpt>
      <trkpt lat="47.70414" lon="-2.65877">
        <ele>45</ele>
        <time>2013-04-17T12:46:56</time>
      </trkpt>
      <trkpt lat="47.70414" lon="-2.65877">
        <ele>43</ele>
        <time>2013-04-17T12:47:06</time>
      </trkpt>
      <trkpt lat="47.70417" lon="-2.6588">
        <ele>44</ele>
        <time>2013-04-17T12:47:16</time>
      </trkpt>
      <trkpt lat="47.70425" lon="-2.65886">
        <ele>44</ele>
        <time>2013-04-17T12:47:26</time>
      </trkpt>
      <trkpt lat="47.70431" lon="-2.65891">
        <ele>44</ele>
        <time>2013-04-17T12:47:36</time>
      </trkpt>
      <trkpt lat="47.7044" lon="-2.65898">
        <ele>43</ele>
        <time>2013-04-17T12:47:46</time>
      </trkpt>
      <trkpt lat="47.70443" lon="-2.659">
        <ele>43</ele>
        <time>2013-04-17T12:47:57</time>
      </trkpt>
      <trkpt lat="47.70332" lon="-2.66097">
        <ele>43</ele>
        <time>2013-04-17T12:48:06</time>
      </trkpt>
      <trkpt lat="47.70337" lon="-2.66109">
        <ele>43</ele>
        <time>2013-04-17T12:48:17</time>
      </trkpt>
      <trkpt lat="47.70343" lon="-2.66122">
        <ele>44</ele>
        <time>2013-04-17T12:48:27</time>
      </trkpt>
      <trkpt lat="47.70348" lon="-2.66135">
        <ele>43</ele>
        <time>2013-04-17T12:48:37</time>
      </trkpt>
      <trkpt lat="47.70352" lon="-2.66144">
        <ele>43</ele>
        <time>2013-04-17T12:48:47</time>
      </trkpt>
      <trkpt lat="47.70355" lon="-2.66153">
        <ele>44</ele>
        <time>2013-04-17T12:48:57</time>
      </trkpt>
      <trkpt lat="47.70361" lon="-2.66166">
        <ele>42</ele>
        <time>2013-04-17T12:49:07</time>
      </trkpt>
      <trkpt lat="47.70366" lon="-2.66179">
        <ele>43</ele>
        <time>2013-04-17T12:49:17</time>
      </trkpt>
      <trkpt lat="47.70371" lon="-2.66193">
        <ele>43</ele>
        <time>2013-04-17T12:49:27</time>
      </trkpt>
      <trkpt lat="47.70377" lon="-2.66209">
        <ele>44</ele>
        <time>2013-04-17T12:49:37</time>
      </trkpt>
      <trkpt lat="47.70384" lon="-2.66228">
        <ele>44</ele>
        <time>2013-04-17T12:49:47</time>
      </trkpt>
      <trkpt lat="47.7039" lon="-2.66243">
        <ele>43</ele>
        <time>2013-04-17T12:49:58</time>
      </trkpt>
      <trkpt lat="47.70395" lon="-2.66256">
        <ele>43</ele>
        <time>2013-04-17T12:50:08</time>
      </trkpt>
      <trkpt lat="47.70399" lon="-2.66266">
        <ele>43</ele>
        <time>2013-04-17T12:50:18</time>
      </trkpt>
      <trkpt lat="47.70403" lon="-2.66277">
        <ele>43</ele>
        <time>2013-04-17T12:50:28</time>
      </trkpt>
      <trkpt lat="47.70409" lon="-2.66291">
        <ele>44</ele>
        <time>2013-04-17T12:50:38</time>
      </trkpt>
      <trkpt lat="47.70416" lon="-2.66308">
        <ele>44</ele>
        <time>2013-04-17T12:50:48</time>
      </trkpt>
      <trkpt lat="47.70418" lon="-2.66313">
        <ele>44</ele>
        <time>2013-04-17T12:50:58</time>
      </trkpt>
      <trkpt lat="47.7042" lon="-2.66319">
        <ele>44</ele>
        <time>2013-04-17T12:51:08</time>
      </trkpt>
      <trkpt lat="47.70423" lon="-2.6633">
        <ele>44</ele>
        <time>2013-04-17T12:51:18</time>
      </trkpt>
      <trkpt lat="47.70427" lon="-2.66341">
        <ele>43</ele>
        <time>2013-04-17T12:51:28</time>
      </trkpt>
      <trkpt lat="47.7043" lon="-2.66352">
        <ele>44</ele>
        <time>2013-04-17T12:51:38</time>
      </trkpt>
      <trkpt lat="47.70432" lon="-2.66357">
        <ele>43</ele>
        <time>2013-04-17T12:51:49</time>
      </trkpt>
      <trkpt lat="47.70433" lon="-2.66362">
        <ele>43</ele>
        <time>2013-04-17T12:51:59</time>
      </trkpt>
      <trkpt lat="47.70437" lon="-2.66374">
        <ele>43</ele>
        <time>2013-04-17T12:52:09</time>
      </trkpt>
      <trkpt lat="47.70441" lon="-2.66387">
        <ele>44</ele>
        <time>2013-04-17T12:52:19</time>
      </trkpt>
      <trkpt lat="47.70447" lon="-2.66404">
        <ele>43</ele>
        <time>2013-04-17T12:52:29</time>
      </trkpt>
      <trkpt lat="47.70452" lon="-2.6642">
        <ele>43</ele>
        <time>2013-04-17T12:52:39</time>
      </trkpt>
      <trkpt lat="47.7054" lon="-2.66374">
        <ele>43</ele>
        <time>2013-04-17T12:52:49</time>
      </trkpt>
      <trkpt lat="47.70544" lon="-2.66389">
        <ele>44</ele>
        <time>2013-04-17T12:52:59</time>
      </trkpt>
      <trkpt lat="47.70549" lon="-2.66402">
        <ele>44</ele>
        <time>2013-04-17T12:53:09</time>
      </trkpt>
      <trkpt lat="47.70552" lon="-2.6642">
        <ele>43</ele>
        <time>2013-04-17T12:53:19</time>
      </trkpt>
      <trkpt lat="47.70556" lon="-2.66436">
        <ele>43</ele>
        <time>2013-04-17T12:53:29</time>
      </trkpt>
      <trkpt lat="47.70557" lon="-2.6645">
        <ele>42</ele>
        <time>2013-04-17T12:53:39</time>
      </trkpt>
      <trkpt lat="47.70552" lon="-2.66464">
        <ele>42</ele>
        <time>2013-04-17T12:53:50</time>
      </trkpt>
      <trkpt lat="47.70544" lon="-2.66474">
        <ele>45</ele>
        <time>2013-04-17T12:54:00</time>
      </trkpt>
      <trkpt lat="47.70535" lon="-2.66485">
        <ele>44</ele>
        <time>2013-04-17T12:54:10</time>
      </trkpt>
      <trkpt lat="47.70526" lon="-2.66495">
        <ele>44</ele>
        <time>2013-04-17T12:54:20</time>
      </trkpt>
      <trkpt lat="47.70526" lon="-2.66502">
        <ele>43</ele>
        <time>2013-04-17T12:54:30</time>
      </trkpt>
      <trkpt lat="47.70525" lon="-2.66513">
        <ele>44</ele>
        <time>2013-04-17T12:54:40</time>
      </trkpt>
      <trkpt lat="47.70528" lon="-2.66528">
        <ele>44</ele>
        <time>2013-04-17T12:54:50</time>
      </trkpt>
      <trkpt lat="47.70532" lon="-2.66545">
        <ele>44</ele>
        <time>2013-04-17T12:55:00</time>
      </trkpt>
      <trkpt lat="47.70537" lon="-2.66564">
        <ele>43</ele>
        <time>2013-04-17T12:55:10</time>
      </trkpt>
      <trkpt lat="47.70538" lon="-2.6658">
        <ele>44</ele>
        <time>2013-04-17T12:55:20</time>
      </trkpt>
      <trkpt lat="47.7054" lon="-2.66596">
        <ele>43</ele>
        <time>2013-04-17T12:55:30</time>
      </trkpt>
      <trkpt lat="47.70541" lon="-2.66611">
        <ele>43</ele>
        <time>2013-04-17T12:55:40</time>
      </trkpt>
      <trkpt lat="47.70542" lon="-2.66625">
        <ele>43</ele>
        <time>2013-04-17T12:55:50</time>
      </trkpt>
      <trkpt lat="47.70537" lon="-2.66636">
        <ele>44</ele>
        <time>2013-04-17T12:56:01</time>
      </trkpt>
      <trkpt lat="47.70529" lon="-2.66643">
        <ele>44</ele>
        <time>2013-04-17T12:56:11</time>
      </trkpt>
      <trkpt lat="47.70523" lon="-2.66644">
        <ele>45</ele>
        <time>2013-04-17T12:56:21</time>
      </trkpt>
      <trkpt lat="47.70519" lon="-2.66638">
        <ele>45</ele>
        <time>2013-04-17T12:56:31</time>
      </trkpt>
      <trkpt lat="47.70512" lon="-2.66643">
        <ele>46</ele>
        <time>2013-04-17T12:56:41</time>
      </trkpt>
      <trkpt lat="47.70512" lon="-2.66662">
        <ele>45</ele>
        <time>2013-04-17T12:56:51</time>
      </trkpt>
      <trkpt lat="47.70512" lon="-2.66685">
        <ele>46</ele>
        <time>2013-04-17T12:57:01</time>
      </trkpt>
      <trkpt lat="47.70513" lon="-2.66706">
        <ele>46</ele>
        <time>2013-04-17T12:57:11</time>
      </trkpt>
      <trkpt lat="47.70514" lon="-2.66724">
        <ele>46</ele>
        <time>2013-04-17T12:57:21</time>
      </trkpt>
      <trkpt lat="47.70514" lon="-2.6674">
        <ele>46</ele>
        <time>2013-04-17T12:57:31</time>
      </trkpt>
      <trkpt lat="47.70515" lon="-2.66759">
        <ele>46</ele>
        <time>2013-04-17T12:57:41</time>
      </trkpt>
      <trkpt lat="47.70516" lon="-2.66779">
        <ele>44</ele>
        <time>2013-04-17T12:57:51</time>
      </trkpt>
      <trkpt lat="47.70517" lon="-2.66797">
        <ele>45</ele>
        <time>2013-04-17T12:58:01</time>
      </trkpt>
      <trkpt lat="47.70522" lon="-2.66812">
        <ele>44</ele>
        <time>2013-04-17T12:58:11</time>
      </trkpt>
      <trkpt lat="47.70524" lon="-2.6683">
        <ele>43</ele>
        <time>2013-04-17T12:58:22</time>
      </trkpt>
      <trkpt lat="47.70525" lon="-2.66849">
        <ele>43</ele>
        <time>2013-04-17T12:58:32</time>
      </trkpt>
      <trkpt lat="47.70527" lon="-2.66867">
        <ele>44</ele>
        <time>2013-04-17T12:58:42</time>
      </trkpt>
      <trkpt lat="47.70527" lon="-2.66888">
        <ele>43</ele>
        <time>2013-04-17T12:58:52</time>
      </trkpt>
      <trkpt lat="47.70527" lon="-2.66909">
        <ele>43</ele>
        <time>2013-04-17T12:59:02</time>
      </trkpt>
      <trkpt lat="47.70524" lon="-2.66926">
        <ele>42</ele>
        <time>2013-04-17T12:59:12</time>
      </trkpt>
      <trkpt lat="47.70516" lon="-2.6693">
        <ele>44</ele>
        <time>2013-04-17T12:59:22</time>
      </trkpt>
      <trkpt lat="47.70506" lon="-2.66929">
        <ele>44</ele>
        <time>2013-04-17T12:59:32</time>
      </trkpt>
      <trkpt lat="47.70499" lon="-2.6693">
        <ele>44</ele>
        <time>2013-04-17T12:59:42</time>
      </trkpt>
      <trkpt lat="47.70496" lon="-2.66931">
        <ele>44</ele>
        <time>2013-04-17T12:59:52</time>
      </trkpt>
      <trkpt lat="47.70496" lon="-2.66931">
        <ele>45</ele>
        <time>2013-04-17T13:00:02</time>
      </trkpt>
      <trkpt lat="47.70496" lon="-2.66931">
        <ele>44</ele>
        <time>2013-04-17T13:00:12</time>
      </trkpt>
      <trkpt lat="47.70494" lon="-2.66932">
        <ele>44</ele>
        <time>2013-04-17T13:00:22</time>
      </trkpt>
      <trkpt lat="47.70497" lon="-2.66934">
        <ele>45</ele>
        <time>2013-04-17T13:00:32</time>
      </trkpt>
      <trkpt lat="47.70499" lon="-2.66937">
        <ele>45</ele>
        <time>2013-04-17T13:00:42</time>
      </trkpt>
      <trkpt lat="47.705" lon="-2.66941">
        <ele>45</ele>
        <time>2013-04-17T13:00:53</time>
      </trkpt>
      <trkpt lat="47.70493" lon="-2.66949">
        <ele>45</ele>
        <time>2013-04-17T13:01:03</time>
      </trkpt>
      <trkpt lat="47.70486" lon="-2.66961">
        <ele>46</ele>
        <time>2013-04-17T13:01:13</time>
      </trkpt>
      <trkpt lat="47.7048" lon="-2.66973">
        <ele>47</ele>
        <time>2013-04-17T13:01:23</time>
      </trkpt>
      <trkpt lat="47.70476" lon="-2.66984">
        <ele>47</ele>
        <time>2013-04-17T13:01:33</time>
      </trkpt>
      <trkpt lat="47.7047" lon="-2.66997">
        <ele>48</ele>
        <time>2013-04-17T13:01:43</time>
      </trkpt>
      <trkpt lat="47.70465" lon="-2.67013">
        <ele>48</ele>
        <time>2013-04-17T13:01:53</time>
      </trkpt>
      <trkpt lat="47.7046" lon="-2.67029">
        <ele>47</ele>
        <time>2013-04-17T13:02:03</time>
      </trkpt>
      <trkpt lat="47.70455" lon="-2.67044">
        <ele>49</ele>
        <time>2013-04-17T13:02:13</time>
      </trkpt>
      <trkpt lat="47.70451" lon="-2.67059">
        <ele>48</ele>
        <time>2013-04-17T13:02:23</time>
      </trkpt>
      <trkpt lat="47.70445" lon="-2.67073">
        <ele>49</ele>
        <time>2013-04-17T13:02:33</time>
      </trkpt>
      <trkpt lat="47.70439" lon="-2.67089">
        <ele>48</ele>
        <time>2013-04-17T13:02:43</time>
      </trkpt>
      <trkpt lat="47.70434" lon="-2.67105">
        <ele>48</ele>
        <time>2013-04-17T13:02:54</time>
      </trkpt>
      <trkpt lat="47.70428" lon="-2.67121">
        <ele>48</ele>
        <time>2013-04-17T13:03:04</time>
      </trkpt>
      <trkpt lat="47.70423" lon="-2.67139">
        <ele>49</ele>
        <time>2013-04-17T13:03:14</time>
      </trkpt>
      <trkpt lat="47.70418" lon="-2.67155">
        <ele>49</ele>
        <time>2013-04-17T13:03:24</time>
      </trkpt>
      <trkpt lat="47.70415" lon="-2.67164">
        <ele>49</ele>
        <time>2013-04-17T13:03:34</time>
      </trkpt>
      <trkpt lat="47.70411" lon="-2.6718">
        <ele>48</ele>
        <time>2013-04-17T13:03:44</time>
      </trkpt>
      <trkpt lat="47.70406" lon="-2.67194">
        <ele>48</ele>
        <time>2013-04-17T13:03:54</time>
      </trkpt>
      <trkpt lat="47.70401" lon="-2.67209">
        <ele>50</ele>
        <time>2013-04-17T13:04:04</time>
      </trkpt>
      <trkpt lat="47.70396" lon="-2.67227">
        <ele>49</ele>
        <time>2013-04-17T13:04:14</time>
      </trkpt>
      <trkpt lat="47.70395" lon="-2.67242">
        <ele>49</ele>
        <time>2013-04-17T13:04:24</time>
      </trkpt>
      <trkpt lat="47.70392" lon="-2.67259">
        <ele>50</ele>
        <time>2013-04-17T13:04:34</time>
      </trkpt>
      <trkpt lat="47.70391" lon="-2.67278">
        <ele>50</ele>
        <time>2013-04-17T13:04:44</time>
      </trkpt>
      <trkpt lat="47.7039" lon="-2.67298">
        <ele>49</ele>
        <time>2013-04-17T13:04:54</time>
      </trkpt>
      <trkpt lat="47.7039" lon="-2.67317">
        <ele>50</ele>
        <time>2013-04-17T13:05:04</time>
      </trkpt>
      <trkpt lat="47.70392" lon="-2.67334">
        <ele>49</ele>
        <time>2013-04-17T13:05:15</time>
      </trkpt>
      <trkpt lat="47.70392" lon="-2.6735">
        <ele>48</ele>
        <time>2013-04-17T13:05:25</time>
      </trkpt>
      <trkpt lat="47.70392" lon="-2.67366">
        <ele>48</ele>
        <time>2013-04-17T13:05:35</time>
      </trkpt>
      <trkpt lat="47.70392" lon="-2.67385">
        <ele>48</ele>
        <time>2013-04-17T13:05:45</time>
      </trkpt>
      <trkpt lat="47.70391" lon="-2.67407">
        <ele>47</ele>
        <time>2013-04-17T13:05:55</time>
      </trkpt>
      <trkpt lat="47.70392" lon="-2.67428">
        <ele>46</ele>
        <time>2013-04-17T13:06:05</time>
      </trkpt>
      <trkpt lat="47.70394" lon="-2.67444">
        <ele>46</ele>
        <time>2013-04-17T13:06:15</time>
      </trkpt>
      <trkpt lat="47.70395" lon="-2.67465">
        <ele>46</ele>
        <time>2013-04-17T13:06:25</time>
      </trkpt>
      <trkpt lat="47.70397" lon="-2.67483">
        <ele>46</ele>
        <time>2013-04-17T13:06:35</time>
      </trkpt>
      <trkpt lat="47.70401" lon="-2.67501">
        <ele>47</ele>
        <time>2013-04-17T13:06:45</time>
      </trkpt>
      <trkpt lat="47.70404" lon="-2.67518">
        <ele>47</ele>
        <time>2013-04-17T13:06:55</time>
      </trkpt>
      <trkpt lat="47.70406" lon="-2.67538">
        <ele>46</ele>
        <time>2013-04-17T13:07:05</time>
      </trkpt>
      <trkpt lat="47.70408" lon="-2.67556">
        <ele>46</ele>
        <time>2013-04-17T13:07:16</time>
      </trkpt>
      <trkpt lat="47.70411" lon="-2.67574">
        <ele>47</ele>
        <time>2013-04-17T13:07:26</time>
      </trkpt>
      <trkpt lat="47.70412" lon="-2.67592">
        <ele>47</ele>
        <time>2013-04-17T13:07:36</time>
      </trkpt>
      <trkpt lat="47.70412" lon="-2.67607">
        <ele>47</ele>
        <time>2013-04-17T13:07:46</time>
      </trkpt>
      <trkpt lat="47.70413" lon="-2.67625">
        <ele>46</ele>
        <time>2013-04-17T13:07:56</time>
      </trkpt>
      <trkpt lat="47.70414" lon="-2.67646">
        <ele>46</ele>
        <time>2013-04-17T13:08:06</time>
      </trkpt>
      <trkpt lat="47.70415" lon="-2.67664">
        <ele>46</ele>
        <time>2013-04-17T13:08:16</time>
      </trkpt>
      <trkpt lat="47.70416" lon="-2.67683">
        <ele>46</ele>
        <time>2013-04-17T13:08:26</time>
      </trkpt>
      <trkpt lat="47.70414" lon="-2.67701">
        <ele>46</ele>
        <time>2013-04-17T13:08:36</time>
      </trkpt>
      <trkpt lat="47.70413" lon="-2.67711">
        <ele>46</ele>
        <time>2013-04-17T13:08:46</time>
      </trkpt>
      <trkpt lat="47.70408" lon="-2.67726">
        <ele>46</ele>
        <time>2013-04-17T13:08:56</time>
      </trkpt>
      <trkpt lat="47.704" lon="-2.67739">
        <ele>48</ele>
        <time>2013-04-17T13:09:06</time>
      </trkpt>
      <trkpt lat="47.70393" lon="-2.67748">
        <ele>48</ele>
        <time>2013-04-17T13:09:17</time>
      </trkpt>
      <trkpt lat="47.70385" lon="-2.6776">
        <ele>50</ele>
        <time>2013-04-17T13:09:27</time>
      </trkpt>
      <trkpt lat="47.70377" lon="-2.67774">
        <ele>50</ele>
        <time>2013-04-17T13:09:37</time>
      </trkpt>
      <trkpt lat="47.70371" lon="-2.67788">
        <ele>51</ele>
        <time>2013-04-17T13:09:47</time>
      </trkpt>
      <trkpt lat="47.70368" lon="-2.67804">
        <ele>52</ele>
        <time>2013-04-17T13:09:57</time>
      </trkpt>
      <trkpt lat="47.70366" lon="-2.6782">
        <ele>51</ele>
        <time>2013-04-17T13:10:07</time>
      </trkpt>
      <trkpt lat="47.70365" lon="-2.67837">
        <ele>54</ele>
        <time>2013-04-17T13:10:17</time>
      </trkpt>
      <trkpt lat="47.70364" lon="-2.67854">
        <ele>54</ele>
        <time>2013-04-17T13:10:27</time>
      </trkpt>
      <trkpt lat="47.70362" lon="-2.67872">
        <ele>54</ele>
        <time>2013-04-17T13:10:37</time>
      </trkpt>
      <trkpt lat="47.70361" lon="-2.67888">
        <ele>55</ele>
        <time>2013-04-17T13:10:47</time>
      </trkpt>
      <trkpt lat="47.70359" lon="-2.67905">
        <ele>56</ele>
        <time>2013-04-17T13:10:57</time>
      </trkpt>
      <trkpt lat="47.70359" lon="-2.67919">
        <ele>57</ele>
        <time>2013-04-17T13:11:07</time>
      </trkpt>
      <trkpt lat="47.70358" lon="-2.67935">
        <ele>58</ele>
        <time>2013-04-17T13:11:18</time>
      </trkpt>
      <trkpt lat="47.70358" lon="-2.6795">
        <ele>58</ele>
        <time>2013-04-17T13:11:28</time>
      </trkpt>
      <trkpt lat="47.70357" lon="-2.67968">
        <ele>59</ele>
        <time>2013-04-17T13:11:38</time>
      </trkpt>
      <trkpt lat="47.70357" lon="-2.67982">
        <ele>59</ele>
        <time>2013-04-17T13:11:48</time>
      </trkpt>
      <trkpt lat="47.70355" lon="-2.67997">
        <ele>60</ele>
        <time>2013-04-17T13:11:58</time>
      </trkpt>
      <trkpt lat="47.70353" lon="-2.68011">
        <ele>60</ele>
        <time>2013-04-17T13:12:08</time>
      </trkpt>
      <trkpt lat="47.70353" lon="-2.68026">
        <ele>61</ele>
        <time>2013-04-17T13:12:18</time>
      </trkpt>
      <trkpt lat="47.70353" lon="-2.68038">
        <ele>62</ele>
        <time>2013-04-17T13:12:28</time>
      </trkpt>
      <trkpt lat="47.70352" lon="-2.68055">
        <ele>63</ele>
        <time>2013-04-17T13:12:38</time>
      </trkpt>
      <trkpt lat="47.70352" lon="-2.68064">
        <ele>64</ele>
        <time>2013-04-17T13:12:48</time>
      </trkpt>
      <trkpt lat="47.70351" lon="-2.68068">
        <ele>65</ele>
        <time>2013-04-17T13:12:58</time>
      </trkpt>
      <trkpt lat="47.70351" lon="-2.68082">
        <ele>65</ele>
        <time>2013-04-17T13:13:08</time>
      </trkpt>
      <trkpt lat="47.70351" lon="-2.68098">
        <ele>66</ele>
        <time>2013-04-17T13:13:18</time>
      </trkpt>
      <trkpt lat="47.70349" lon="-2.6811">
        <ele>66</ele>
        <time>2013-04-17T13:13:28</time>
      </trkpt>
      <trkpt lat="47.70346" lon="-2.68122">
        <ele>65</ele>
        <time>2013-04-17T13:13:38</time>
      </trkpt>
      <trkpt lat="47.70343" lon="-2.68135">
        <ele>67</ele>
        <time>2013-04-17T13:13:49</time>
      </trkpt>
      <trkpt lat="47.70339" lon="-2.68149">
        <ele>68</ele>
        <time>2013-04-17T13:13:59</time>
      </trkpt>
      <trkpt lat="47.70334" lon="-2.6816">
        <ele>68</ele>
        <time>2013-04-17T13:14:09</time>
      </trkpt>
      <trkpt lat="47.70329" lon="-2.68172">
        <ele>67</ele>
        <time>2013-04-17T13:14:19</time>
      </trkpt>
      <trkpt lat="47.70325" lon="-2.68179">
        <ele>68</ele>
        <time>2013-04-17T13:14:29</time>
      </trkpt>
      <trkpt lat="47.70323" lon="-2.68186">
        <ele>70</ele>
        <time>2013-04-17T13:14:39</time>
      </trkpt>
      <trkpt lat="47.70323" lon="-2.68189">
        <ele>68</ele>
        <time>2013-04-17T13:14:49</time>
      </trkpt>
      <trkpt lat="47.70326" lon="-2.68192">
        <ele>69</ele>
        <time>2013-04-17T13:14:59</time>
      </trkpt>
      <trkpt lat="47.70327" lon="-2.68192">
        <ele>69</ele>
        <time>2013-04-17T13:15:09</time>
      </trkpt>
      <trkpt lat="47.70325" lon="-2.68193">
        <ele>68</ele>
        <time>2013-04-17T13:15:19</time>
      </trkpt>
      <trkpt lat="47.70324" lon="-2.68191">
        <ele>70</ele>
        <time>2013-04-17T13:15:29</time>
      </trkpt>
      <trkpt lat="47.70325" lon="-2.68188">
        <ele>68</ele>
        <time>2013-04-17T13:15:39</time>
      </trkpt>
      <trkpt lat="47.70325" lon="-2.68187">
        <ele>69</ele>
        <time>2013-04-17T13:15:49</time>
      </trkpt>
      <trkpt lat="47.70324" lon="-2.68188">
        <ele>69</ele>
        <time>2013-04-17T13:15:59</time>
      </trkpt>
      <trkpt lat="47.70322" lon="-2.68193">
        <ele>69</ele>
        <time>2013-04-17T13:16:10</time>
      </trkpt>
      <trkpt lat="47.70321" lon="-2.68198">
        <ele>69</ele>
        <time>2013-04-17T13:16:20</time>
      </trkpt>
      <trkpt lat="47.70322" lon="-2.68199">
        <ele>69</ele>
        <time>2013-04-17T13:16:30</time>
      </trkpt>
      <trkpt lat="47.70322" lon="-2.682">
        <ele>69</ele>
        <time>2013-04-17T13:16:40</time>
      </trkpt>
      <trkpt lat="47.70323" lon="-2.68199">
        <ele>70</ele>
        <time>2013-04-17T13:16:50</time>
      </trkpt>
      <trkpt lat="47.70324" lon="-2.682">
        <ele>68</ele>
        <time>2013-04-17T13:17:00</time>
      </trkpt>
      <trkpt lat="47.70325" lon="-2.682">
        <ele>70</ele>
        <time>2013-04-17T13:17:10</time>
      </trkpt>
      <trkpt lat="47.70327" lon="-2.68197">
        <ele>69</ele>
        <time>2013-04-17T13:17:20</time>
      </trkpt>
      <trkpt lat="47.70328" lon="-2.68196">
        <ele>69</ele>
        <time>2013-04-17T13:17:30</time>
      </trkpt>
      <trkpt lat="47.7033" lon="-2.68195">
        <ele>69</ele>
        <time>2013-04-17T13:17:40</time>
      </trkpt>
      <trkpt lat="47.70331" lon="-2.68194">
        <ele>69</ele>
        <time>2013-04-17T13:17:50</time>
      </trkpt>
      <trkpt lat="47.70332" lon="-2.68193">
        <ele>69</ele>
        <time>2013-04-17T13:18:00</time>
      </trkpt>
      <trkpt lat="47.70332" lon="-2.68191">
        <ele>69</ele>
        <time>2013-04-17T13:18:10</time>
      </trkpt>
      <trkpt lat="47.70331" lon="-2.6819">
        <ele>68</ele>
        <time>2013-04-17T13:18:20</time>
      </trkpt>
      <trkpt lat="47.70326" lon="-2.6819">
        <ele>69</ele>
        <time>2013-04-17T13:18:30</time>
      </trkpt>
      <trkpt lat="47.70319" lon="-2.68194">
        <ele>69</ele>
        <time>2013-04-17T13:18:40</time>
      </trkpt>
      <trkpt lat="47.70316" lon="-2.68198">
        <ele>70</ele>
        <time>2013-04-17T13:18:51</time>
      </trkpt>
      <trkpt lat="47.70312" lon="-2.68204">
        <ele>70</ele>
        <time>2013-04-17T13:19:01</time>
      </trkpt>
      <trkpt lat="47.70305" lon="-2.68213">
        <ele>70</ele>
        <time>2013-04-17T13:19:11</time>
      </trkpt>
      <trkpt lat="47.70299" lon="-2.6822">
        <ele>70</ele>
        <time>2013-04-17T13:19:21</time>
      </trkpt>
      <trkpt lat="47.70293" lon="-2.68229">
        <ele>70</ele>
        <time>2013-04-17T13:19:31</time>
      </trkpt>
      <trkpt lat="47.70285" lon="-2.6824">
        <ele>71</ele>
        <time>2013-04-17T13:19:41</time>
      </trkpt>
      <trkpt lat="47.7028" lon="-2.68251">
        <ele>71</ele>
        <time>2013-04-17T13:19:51</time>
      </trkpt>
      <trkpt lat="47.70274" lon="-2.6826">
        <ele>72</ele>
        <time>2013-04-17T13:20:01</time>
      </trkpt>
      <trkpt lat="47.70269" lon="-2.68272">
        <ele>73</ele>
        <time>2013-04-17T13:20:11</time>
      </trkpt>
      <trkpt lat="47.70264" lon="-2.68286">
        <ele>74</ele>
        <time>2013-04-17T13:20:21</time>
      </trkpt>
      <trkpt lat="47.7026" lon="-2.683">
        <ele>74</ele>
        <time>2013-04-17T13:20:31</time>
      </trkpt>
      <trkpt lat="47.70256" lon="-2.68312">
        <ele>75</ele>
        <time>2013-04-17T13:20:41</time>
      </trkpt>
      <trkpt lat="47.70251" lon="-2.68325">
        <ele>75</ele>
        <time>2013-04-17T13:20:51</time>
      </trkpt>
      <trkpt lat="47.70247" lon="-2.68337">
        <ele>77</ele>
        <time>2013-04-17T13:21:01</time>
      </trkpt>
      <trkpt lat="47.70242" lon="-2.68348">
        <ele>77</ele>
        <time>2013-04-17T13:21:12</time>
      </trkpt>
      <trkpt lat="47.70235" lon="-2.68356">
        <ele>78</ele>
        <time>2013-04-17T13:21:22</time>
      </trkpt>
      <trkpt lat="47.70229" lon="-2.68362">
        <ele>79</ele>
        <time>2013-04-17T13:21:32</time>
      </trkpt>
      <trkpt lat="47.70222" lon="-2.68367">
        <ele>79</ele>
        <time>2013-04-17T13:21:42</time>
      </trkpt>
      <trkpt lat="47.70214" lon="-2.6837">
        <ele>80</ele>
        <time>2013-04-17T13:21:52</time>
      </trkpt>
      <trkpt lat="47.70205" lon="-2.68376">
        <ele>81</ele>
        <time>2013-04-17T13:22:02</time>
      </trkpt>
      <trkpt lat="47.70196" lon="-2.6838">
        <ele>81</ele>
        <time>2013-04-17T13:22:12</time>
      </trkpt>
      <trkpt lat="47.70189" lon="-2.68382">
        <ele>81</ele>
        <time>2013-04-17T13:22:22</time>
      </trkpt>
      <trkpt lat="47.70181" lon="-2.68385">
        <ele>82</ele>
        <time>2013-04-17T13:22:32</time>
      </trkpt>
      <trkpt lat="47.70171" lon="-2.68389">
        <ele>83</ele>
        <time>2013-04-17T13:22:42</time>
      </trkpt>
      <trkpt lat="47.70163" lon="-2.68393">
        <ele>86</ele>
        <time>2013-04-17T13:22:52</time>
      </trkpt>
      <trkpt lat="47.70155" lon="-2.68396">
        <ele>86</ele>
        <time>2013-04-17T13:23:02</time>
      </trkpt>
      <trkpt lat="47.70146" lon="-2.68403">
        <ele>87</ele>
        <time>2013-04-17T13:23:12</time>
      </trkpt>
      <trkpt lat="47.70138" lon="-2.68409">
        <ele>87</ele>
        <time>2013-04-17T13:23:22</time>
      </trkpt>
      <trkpt lat="47.70131" lon="-2.68413">
        <ele>89</ele>
        <time>2013-04-17T13:23:33</time>
      </trkpt>
      <trkpt lat="47.70124" lon="-2.68417">
        <ele>89</ele>
        <time>2013-04-17T13:23:43</time>
      </trkpt>
      <trkpt lat="47.70116" lon="-2.68422">
        <ele>89</ele>
        <time>2013-04-17T13:23:53</time>
      </trkpt>
      <trkpt lat="47.70108" lon="-2.68424">
        <ele>90</ele>
        <time>2013-04-17T13:24:03</time>
      </trkpt>
      <trkpt lat="47.70101" lon="-2.68426">
        <ele>91</ele>
        <time>2013-04-17T13:24:13</time>
      </trkpt>
      <trkpt lat="47.70092" lon="-2.68428">
        <ele>92</ele>
        <time>2013-04-17T13:24:23</time>
      </trkpt>
      <trkpt lat="47.70084" lon="-2.68432">
        <ele>92</ele>
        <time>2013-04-17T13:24:33</time>
      </trkpt>
      <trkpt lat="47.70076" lon="-2.68435">
        <ele>93</ele>
        <time>2013-04-17T13:24:43</time>
      </trkpt>
      <trkpt lat="47.7007" lon="-2.68441">
        <ele>94</ele>
        <time>2013-04-17T13:24:53</time>
      </trkpt>
      <trkpt lat="47.70061" lon="-2.68446">
        <ele>95</ele>
        <time>2013-04-17T13:25:03</time>
      </trkpt>
      <trkpt lat="47.7005" lon="-2.6845">
        <ele>95</ele>
        <time>2013-04-17T13:25:13</time>
      </trkpt>
      <trkpt lat="47.70039" lon="-2.68451">
        <ele>95</ele>
        <time>2013-04-17T13:25:23</time>
      </trkpt>
      <trkpt lat="47.70028" lon="-2.68451">
        <ele>95</ele>
        <time>2013-04-17T13:25:33</time>
      </trkpt>
      <trkpt lat="47.7002" lon="-2.68449">
        <ele>95</ele>
        <time>2013-04-17T13:25:43</time>
      </trkpt>
      <trkpt lat="47.7001" lon="-2.68448">
        <ele>94</ele>
        <time>2013-04-17T13:25:53</time>
      </trkpt>
      <trkpt lat="47.69999" lon="-2.68444">
        <ele>95</ele>
        <time>2013-04-17T13:26:03</time>
      </trkpt>
      <trkpt lat="47.69986" lon="-2.68437">
        <ele>95</ele>
        <time>2013-04-17T13:26:14</time>
      </trkpt>
      <trkpt lat="47.69975" lon="-2.68429">
        <ele>94</ele>
        <time>2013-04-17T13:26:24</time>
      </trkpt>
      <trkpt lat="47.69966" lon="-2.68421">
        <ele>95</ele>
        <time>2013-04-17T13:26:34</time>
      </trkpt>
      <trkpt lat="47.69955" lon="-2.68412">
        <ele>95</ele>
        <time>2013-04-17T13:26:44</time>
      </trkpt>
      <trkpt lat="47.69945" lon="-2.68401">
        <ele>95</ele>
        <time>2013-04-17T13:26:54</time>
      </trkpt>
      <trkpt lat="47.69935" lon="-2.68392">
        <ele>95</ele>
        <time>2013-04-17T13:27:04</time>
      </trkpt>
      <trkpt lat="47.69924" lon="-2.68381">
        <ele>95</ele>
        <time>2013-04-17T13:27:14</time>
      </trkpt>
      <trkpt lat="47.69917" lon="-2.68373">
        <ele>96</ele>
        <time>2013-04-17T13:27:24</time>
      </trkpt>
      <trkpt lat="47.69915" lon="-2.68371">
        <ele>95</ele>
        <time>2013-04-17T13:27:34</time>
      </trkpt>
      <trkpt lat="47.69915" lon="-2.68369">
        <ele>95</ele>
        <time>2013-04-17T13:27:44</time>
      </trkpt>
      <trkpt lat="47.69909" lon="-2.68368">
        <ele>94</ele>
        <time>2013-04-17T13:27:54</time>
      </trkpt>
      <trkpt lat="47.69902" lon="-2.68376">
        <ele>94</ele>
        <time>2013-04-17T13:28:04</time>
      </trkpt>
      <trkpt lat="47.69893" lon="-2.68392">
        <ele>92</ele>
        <time>2013-04-17T13:28:14</time>
      </trkpt>
      <trkpt lat="47.69886" lon="-2.68406">
        <ele>92</ele>
        <time>2013-04-17T13:28:24</time>
      </trkpt>
      <trkpt lat="47.69879" lon="-2.68421">
        <ele>92</ele>
        <time>2013-04-17T13:28:35</time>
      </trkpt>
      <trkpt lat="47.69873" lon="-2.68436">
        <ele>92</ele>
        <time>2013-04-17T13:28:45</time>
      </trkpt>
      <trkpt lat="47.69867" lon="-2.6845">
        <ele>91</ele>
        <time>2013-04-17T13:28:55</time>
      </trkpt>
      <trkpt lat="47.6986" lon="-2.68463">
        <ele>92</ele>
        <time>2013-04-17T13:29:05</time>
      </trkpt>
      <trkpt lat="47.69852" lon="-2.68479">
        <ele>91</ele>
        <time>2013-04-17T13:29:15</time>
      </trkpt>
      <trkpt lat="47.69845" lon="-2.68491">
        <ele>91</ele>
        <time>2013-04-17T13:29:25</time>
      </trkpt>
      <trkpt lat="47.69836" lon="-2.68501">
        <ele>89</ele>
        <time>2013-04-17T13:29:35</time>
      </trkpt>
      <trkpt lat="47.69827" lon="-2.6851">
        <ele>90</ele>
        <time>2013-04-17T13:29:45</time>
      </trkpt>
      <trkpt lat="47.69815" lon="-2.68516">
        <ele>89</ele>
        <time>2013-04-17T13:29:55</time>
      </trkpt>
      <trkpt lat="47.69803" lon="-2.68524">
        <ele>89</ele>
        <time>2013-04-17T13:30:05</time>
      </trkpt>
      <trkpt lat="47.69792" lon="-2.68531">
        <ele>88</ele>
        <time>2013-04-17T13:30:16</time>
      </trkpt>
      <trkpt lat="47.6978" lon="-2.68537">
        <ele>88</ele>
        <time>2013-04-17T13:30:26</time>
      </trkpt>
      <trkpt lat="47.69769" lon="-2.6854">
        <ele>87</ele>
        <time>2013-04-17T13:30:36</time>
      </trkpt>
      <trkpt lat="47.69757" lon="-2.68537">
        <ele>87</ele>
        <time>2013-04-17T13:30:46</time>
      </trkpt>
      <trkpt lat="47.69747" lon="-2.68537">
        <ele>87</ele>
        <time>2013-04-17T13:30:56</time>
      </trkpt>
      <trkpt lat="47.69746" lon="-2.68523">
        <ele>86</ele>
        <time>2013-04-17T13:31:06</time>
      </trkpt>
      <trkpt lat="47.69746" lon="-2.68505">
        <ele>85</ele>
        <time>2013-04-17T13:31:16</time>
      </trkpt>
      <trkpt lat="47.69746" lon="-2.6849">
        <ele>85</ele>
        <time>2013-04-17T13:31:26</time>
      </trkpt>
      <trkpt lat="47.69745" lon="-2.68472">
        <ele>85</ele>
        <time>2013-04-17T13:31:36</time>
      </trkpt>
      <trkpt lat="47.69743" lon="-2.68453">
        <ele>86</ele>
        <time>2013-04-17T13:31:46</time>
      </trkpt>
      <trkpt lat="47.69741" lon="-2.68435">
        <ele>85</ele>
        <time>2013-04-17T13:31:57</time>
      </trkpt>
      <trkpt lat="47.69737" lon="-2.68416">
        <ele>85</ele>
        <time>2013-04-17T13:32:07</time>
      </trkpt>
      <trkpt lat="47.69734" lon="-2.684">
        <ele>85</ele>
        <time>2013-04-17T13:32:17</time>
      </trkpt>
      <trkpt lat="47.69731" lon="-2.68381">
        <ele>86</ele>
        <time>2013-04-17T13:32:27</time>
      </trkpt>
      <trkpt lat="47.69728" lon="-2.68363">
        <ele>85</ele>
        <time>2013-04-17T13:32:37</time>
      </trkpt>
      <trkpt lat="47.69725" lon="-2.68345">
        <ele>86</ele>
        <time>2013-04-17T13:32:47</time>
      </trkpt>
      <trkpt lat="47.69725" lon="-2.68333">
        <ele>87</ele>
        <time>2013-04-17T13:32:57</time>
      </trkpt>
      <trkpt lat="47.69724" lon="-2.68317">
        <ele>87</ele>
        <time>2013-04-17T13:33:07</time>
      </trkpt>
      <trkpt lat="47.69724" lon="-2.68302">
        <ele>86</ele>
        <time>2013-04-17T13:33:17</time>
      </trkpt>
      <trkpt lat="47.69722" lon="-2.68287">
        <ele>88</ele>
        <time>2013-04-17T13:33:27</time>
      </trkpt>
      <trkpt lat="47.69722" lon="-2.68271">
        <ele>89</ele>
        <time>2013-04-17T13:33:37</time>
      </trkpt>
      <trkpt lat="47.69719" lon="-2.68251">
        <ele>89</ele>
        <time>2013-04-17T13:33:47</time>
      </trkpt>
      <trkpt lat="47.69716" lon="-2.68232">
        <ele>89</ele>
        <time>2013-04-17T13:33:57</time>
      </trkpt>
      <trkpt lat="47.69715" lon="-2.68216">
        <ele>89</ele>
        <time>2013-04-17T13:34:08</time>
      </trkpt>
      <trkpt lat="47.69714" lon="-2.68203">
        <ele>90</ele>
        <time>2013-04-17T13:34:18</time>
      </trkpt>
      <trkpt lat="47.69711" lon="-2.68188">
        <ele>90</ele>
        <time>2013-04-17T13:34:28</time>
      </trkpt>
      <trkpt lat="47.69707" lon="-2.6817">
        <ele>91</ele>
        <time>2013-04-17T13:34:38</time>
      </trkpt>
      <trkpt lat="47.69705" lon="-2.68153">
        <ele>92</ele>
        <time>2013-04-17T13:34:48</time>
      </trkpt>
      <trkpt lat="47.69701" lon="-2.68134">
        <ele>92</ele>
        <time>2013-04-17T13:34:58</time>
      </trkpt>
      <trkpt lat="47.69693" lon="-2.68113">
        <ele>92</ele>
        <time>2013-04-17T13:35:08</time>
      </trkpt>
      <trkpt lat="47.69686" lon="-2.68094">
        <ele>92</ele>
        <time>2013-04-17T13:35:18</time>
      </trkpt>
      <trkpt lat="47.6968" lon="-2.68075">
        <ele>92</ele>
        <time>2013-04-17T13:35:28</time>
      </trkpt>
      <trkpt lat="47.69673" lon="-2.68054">
        <ele>93</ele>
        <time>2013-04-17T13:35:38</time>
      </trkpt>
      <trkpt lat="47.69666" lon="-2.68037">
        <ele>93</ele>
        <time>2013-04-17T13:35:48</time>
      </trkpt>
      <trkpt lat="47.69656" lon="-2.6803">
        <ele>92</ele>
        <time>2013-04-17T13:35:59</time>
      </trkpt>
      <trkpt lat="47.69644" lon="-2.68034">
        <ele>92</ele>
        <time>2013-04-17T13:36:09</time>
      </trkpt>
      <trkpt lat="47.69633" lon="-2.68039">
        <ele>92</ele>
        <time>2013-04-17T13:36:19</time>
      </trkpt>
      <trkpt lat="47.69622" lon="-2.68043">
        <ele>91</ele>
        <time>2013-04-17T13:36:29</time>
      </trkpt>
      <trkpt lat="47.6961" lon="-2.68049">
        <ele>91</ele>
        <time>2013-04-17T13:36:39</time>
      </trkpt>
      <trkpt lat="47.69598" lon="-2.68053">
        <ele>91</ele>
        <time>2013-04-17T13:36:49</time>
      </trkpt>
      <trkpt lat="47.69587" lon="-2.68058">
        <ele>90</ele>
        <time>2013-04-17T13:36:59</time>
      </trkpt>
      <trkpt lat="47.69576" lon="-2.68061">
        <ele>89</ele>
        <time>2013-04-17T13:37:09</time>
      </trkpt>
      <trkpt lat="47.69563" lon="-2.68066">
        <ele>89</ele>
        <time>2013-04-17T13:37:19</time>
      </trkpt>
      <trkpt lat="47.69547" lon="-2.6807">
        <ele>89</ele>
        <time>2013-04-17T13:37:29</time>
      </trkpt>
      <trkpt lat="47.69532" lon="-2.68068">
        <ele>87</ele>
        <time>2013-04-17T13:37:39</time>
      </trkpt>
      <trkpt lat="47.69519" lon="-2.68064">
        <ele>89</ele>
        <time>2013-04-17T13:37:49</time>
      </trkpt>
      <trkpt lat="47.69508" lon="-2.68056">
        <ele>87</ele>
        <time>2013-04-17T13:37:59</time>
      </trkpt>
      <trkpt lat="47.69499" lon="-2.68045">
        <ele>88</ele>
        <time>2013-04-17T13:38:10</time>
      </trkpt>
      <trkpt lat="47.69488" lon="-2.68037">
        <ele>87</ele>
        <time>2013-04-17T13:38:20</time>
      </trkpt>
      <trkpt lat="47.69476" lon="-2.68031">
        <ele>86</ele>
        <time>2013-04-17T13:38:30</time>
      </trkpt>
      <trkpt lat="47.69464" lon="-2.68024">
        <ele>86</ele>
        <time>2013-04-17T13:38:40</time>
      </trkpt>
      <trkpt lat="47.69456" lon="-2.6801">
        <ele>86</ele>
        <time>2013-04-17T13:38:50</time>
      </trkpt>
      <trkpt lat="47.69452" lon="-2.67992">
        <ele>85</ele>
        <time>2013-04-17T13:39:00</time>
      </trkpt>
      <trkpt lat="47.69449" lon="-2.67974">
        <ele>85</ele>
        <time>2013-04-17T13:39:10</time>
      </trkpt>
      <trkpt lat="47.69447" lon="-2.67955">
        <ele>84</ele>
        <time>2013-04-17T13:39:20</time>
      </trkpt>
      <trkpt lat="47.69444" lon="-2.67937">
        <ele>83</ele>
        <time>2013-04-17T13:39:30</time>
      </trkpt>
      <trkpt lat="47.6944" lon="-2.67919">
        <ele>83</ele>
        <time>2013-04-17T13:39:40</time>
      </trkpt>
      <trkpt lat="47.69436" lon="-2.67903">
        <ele>83</ele>
        <time>2013-04-17T13:39:50</time>
      </trkpt>
      <trkpt lat="47.69431" lon="-2.67886">
        <ele>82</ele>
        <time>2013-04-17T13:40:00</time>
      </trkpt>
      <trkpt lat="47.69427" lon="-2.67871">
        <ele>82</ele>
        <time>2013-04-17T13:40:10</time>
      </trkpt>
      <trkpt lat="47.69421" lon="-2.67854">
        <ele>81</ele>
        <time>2013-04-17T13:40:20</time>
      </trkpt>
      <trkpt lat="47.69415" lon="-2.67836">
        <ele>81</ele>
        <time>2013-04-17T13:40:30</time>
      </trkpt>
      <trkpt lat="47.69409" lon="-2.67817">
        <ele>80</ele>
        <time>2013-04-17T13:40:41</time>
      </trkpt>
      <trkpt lat="47.69405" lon="-2.67799">
        <ele>80</ele>
        <time>2013-04-17T13:40:51</time>
      </trkpt>
      <trkpt lat="47.69402" lon="-2.67781">
        <ele>79</ele>
        <time>2013-04-17T13:41:01</time>
      </trkpt>
      <trkpt lat="47.69401" lon="-2.67762">
        <ele>80</ele>
        <time>2013-04-17T13:41:11</time>
      </trkpt>
      <trkpt lat="47.694" lon="-2.67744">
        <ele>79</ele>
        <time>2013-04-17T13:41:21</time>
      </trkpt>
      <trkpt lat="47.694" lon="-2.67728">
        <ele>78</ele>
        <time>2013-04-17T13:41:31</time>
      </trkpt>
      <trkpt lat="47.694" lon="-2.67723">
        <ele>79</ele>
        <time>2013-04-17T13:41:41</time>
      </trkpt>
      <trkpt lat="47.694" lon="-2.67721">
        <ele>79</ele>
        <time>2013-04-17T13:41:51</time>
      </trkpt>
      <trkpt lat="47.694" lon="-2.67719">
        <ele>78</ele>
        <time>2013-04-17T13:42:01</time>
      </trkpt>
      <trkpt lat="47.69399" lon="-2.67721">
        <ele>79</ele>
        <time>2013-04-17T13:42:11</time>
      </trkpt>
      <trkpt lat="47.69398" lon="-2.67722">
        <ele>79</ele>
        <time>2013-04-17T13:42:21</time>
      </trkpt>
      <trkpt lat="47.69397" lon="-2.67724">
        <ele>79</ele>
        <time>2013-04-17T13:42:31</time>
      </trkpt>
      <trkpt lat="47.69396" lon="-2.67726">
        <ele>79</ele>
        <time>2013-04-17T13:42:41</time>
      </trkpt>
      <trkpt lat="47.69396" lon="-2.67728">
        <ele>79</ele>
        <time>2013-04-17T13:42:51</time>
      </trkpt>
      <trkpt lat="47.69396" lon="-2.6773">
        <ele>78</ele>
        <time>2013-04-17T13:43:02</time>
      </trkpt>
      <trkpt lat="47.69395" lon="-2.67732">
        <ele>79</ele>
        <time>2013-04-17T13:43:12</time>
      </trkpt>
      <trkpt lat="47.69392" lon="-2.67731">
        <ele>79</ele>
        <time>2013-04-17T13:43:22</time>
      </trkpt>
      <trkpt lat="47.6939" lon="-2.67729">
        <ele>79</ele>
        <time>2013-04-17T13:43:32</time>
      </trkpt>
      <trkpt lat="47.69389" lon="-2.67721">
        <ele>79</ele>
        <time>2013-04-17T13:43:42</time>
      </trkpt>
      <trkpt lat="47.69393" lon="-2.67713">
        <ele>79</ele>
        <time>2013-04-17T13:43:52</time>
      </trkpt>
      <trkpt lat="47.69396" lon="-2.67705">
        <ele>79</ele>
        <time>2013-04-17T13:44:02</time>
      </trkpt>
      <trkpt lat="47.69401" lon="-2.6769">
        <ele>79</ele>
        <time>2013-04-17T13:44:12</time>
      </trkpt>
      <trkpt lat="47.69404" lon="-2.67675">
        <ele>81</ele>
        <time>2013-04-17T13:44:22</time>
      </trkpt>
      <trkpt lat="47.69407" lon="-2.67658">
        <ele>80</ele>
        <time>2013-04-17T13:44:32</time>
      </trkpt>
      <trkpt lat="47.69409" lon="-2.67655">
        <ele>79</ele>
        <time>2013-04-17T13:44:42</time>
      </trkpt>
      <trkpt lat="47.69411" lon="-2.67655">
        <ele>80</ele>
        <time>2013-04-17T13:44:52</time>
      </trkpt>
      <trkpt lat="47.69413" lon="-2.67652">
        <ele>81</ele>
        <time>2013-04-17T13:45:02</time>
      </trkpt>
      <trkpt lat="47.69416" lon="-2.67648">
        <ele>80</ele>
        <time>2013-04-17T13:45:13</time>
      </trkpt>
      <trkpt lat="47.69419" lon="-2.67644">
        <ele>80</ele>
        <time>2013-04-17T13:45:23</time>
      </trkpt>
      <trkpt lat="47.69425" lon="-2.67642">
        <ele>81</ele>
        <time>2013-04-17T13:45:33</time>
      </trkpt>
      <trkpt lat="47.69432" lon="-2.67632">
        <ele>81</ele>
        <time>2013-04-17T13:45:43</time>
      </trkpt>
      <trkpt lat="47.69433" lon="-2.67622">
        <ele>83</ele>
        <time>2013-04-17T13:45:53</time>
      </trkpt>
      <trkpt lat="47.6943" lon="-2.67608">
        <ele>83</ele>
        <time>2013-04-17T13:46:03</time>
      </trkpt>
      <trkpt lat="47.69429" lon="-2.67595">
        <ele>83</ele>
        <time>2013-04-17T13:46:13</time>
      </trkpt>
      <trkpt lat="47.6943" lon="-2.67578">
        <ele>84</ele>
        <time>2013-04-17T13:46:23</time>
      </trkpt>
      <trkpt lat="47.69433" lon="-2.67561">
        <ele>85</ele>
        <time>2013-04-17T13:46:33</time>
      </trkpt>
      <trkpt lat="47.69437" lon="-2.67546">
        <ele>84</ele>
        <time>2013-04-17T13:46:43</time>
      </trkpt>
      <trkpt lat="47.69444" lon="-2.67532">
        <ele>85</ele>
        <time>2013-04-17T13:46:53</time>
      </trkpt>
      <trkpt lat="47.69451" lon="-2.67521">
        <ele>85</ele>
        <time>2013-04-17T13:47:03</time>
      </trkpt>
      <trkpt lat="47.69456" lon="-2.6751">
        <ele>86</ele>
        <time>2013-04-17T13:47:13</time>
      </trkpt>
      <trkpt lat="47.69464" lon="-2.67501">
        <ele>85</ele>
        <time>2013-04-17T13:47:24</time>
      </trkpt>
      <trkpt lat="47.69473" lon="-2.67489">
        <ele>85</ele>
        <time>2013-04-17T13:47:34</time>
      </trkpt>
      <trkpt lat="47.69481" lon="-2.67478">
        <ele>86</ele>
        <time>2013-04-17T13:47:44</time>
      </trkpt>
      <trkpt lat="47.6949" lon="-2.67468">
        <ele>86</ele>
        <time>2013-04-17T13:47:54</time>
      </trkpt>
      <trkpt lat="47.695" lon="-2.67457">
        <ele>86</ele>
        <time>2013-04-17T13:48:04</time>
      </trkpt>
      <trkpt lat="47.6951" lon="-2.67447">
        <ele>87</ele>
        <time>2013-04-17T13:48:14</time>
      </trkpt>
      <trkpt lat="47.69519" lon="-2.67437">
        <ele>86</ele>
        <time>2013-04-17T13:48:24</time>
      </trkpt>
      <trkpt lat="47.69529" lon="-2.67424">
        <ele>86</ele>
        <time>2013-04-17T13:48:34</time>
      </trkpt>
      <trkpt lat="47.69538" lon="-2.67415">
        <ele>86</ele>
        <time>2013-04-17T13:48:44</time>
      </trkpt>
      <trkpt lat="47.69547" lon="-2.67406">
        <ele>86</ele>
        <time>2013-04-17T13:48:54</time>
      </trkpt>
      <trkpt lat="47.69555" lon="-2.67397">
        <ele>87</ele>
        <time>2013-04-17T13:49:04</time>
      </trkpt>
      <trkpt lat="47.69561" lon="-2.67388">
        <ele>87</ele>
        <time>2013-04-17T13:49:14</time>
      </trkpt>
      <trkpt lat="47.69569" lon="-2.67379">
        <ele>87</ele>
        <time>2013-04-17T13:49:24</time>
      </trkpt>
      <trkpt lat="47.69578" lon="-2.67366">
        <ele>88</ele>
        <time>2013-04-17T13:49:34</time>
      </trkpt>
      <trkpt lat="47.69585" lon="-2.67353">
        <ele>89</ele>
        <time>2013-04-17T13:49:45</time>
      </trkpt>
      <trkpt lat="47.69592" lon="-2.6734">
        <ele>90</ele>
        <time>2013-04-17T13:49:55</time>
      </trkpt>
      <trkpt lat="47.69602" lon="-2.67331">
        <ele>91</ele>
        <time>2013-04-17T13:50:05</time>
      </trkpt>
      <trkpt lat="47.69611" lon="-2.67318">
        <ele>91</ele>
        <time>2013-04-17T13:50:15</time>
      </trkpt>
      <trkpt lat="47.69618" lon="-2.67304">
        <ele>92</ele>
        <time>2013-04-17T13:50:25</time>
      </trkpt>
      <trkpt lat="47.69625" lon="-2.67288">
        <ele>94</ele>
        <time>2013-04-17T13:50:35</time>
      </trkpt>
      <trkpt lat="47.6963" lon="-2.67275">
        <ele>93</ele>
        <time>2013-04-17T13:50:45</time>
      </trkpt>
      <trkpt lat="47.69635" lon="-2.67262">
        <ele>95</ele>
        <time>2013-04-17T13:50:55</time>
      </trkpt>
      <trkpt lat="47.69638" lon="-2.67247">
        <ele>95</ele>
        <time>2013-04-17T13:51:05</time>
      </trkpt>
      <trkpt lat="47.6964" lon="-2.6723">
        <ele>95</ele>
        <time>2013-04-17T13:51:15</time>
      </trkpt>
      <trkpt lat="47.6964" lon="-2.67221">
        <ele>95</ele>
        <time>2013-04-17T13:51:25</time>
      </trkpt>
      <trkpt lat="47.69639" lon="-2.67214">
        <ele>96</ele>
        <time>2013-04-17T13:51:35</time>
      </trkpt>
      <trkpt lat="47.69637" lon="-2.6721">
        <ele>97</ele>
        <time>2013-04-17T13:51:46</time>
      </trkpt>
      <trkpt lat="47.69635" lon="-2.67209">
        <ele>95</ele>
        <time>2013-04-17T13:51:56</time>
      </trkpt>
      <trkpt lat="47.69633" lon="-2.67208">
        <ele>96</ele>
        <time>2013-04-17T13:52:06</time>
      </trkpt>
      <trkpt lat="47.69631" lon="-2.6721">
        <ele>97</ele>
        <time>2013-04-17T13:52:16</time>
      </trkpt>
      <trkpt lat="47.69629" lon="-2.6721">
        <ele>96</ele>
        <time>2013-04-17T13:52:26</time>
      </trkpt>
      <trkpt lat="47.6963" lon="-2.67211">
        <ele>97</ele>
        <time>2013-04-17T13:52:36</time>
      </trkpt>
      <trkpt lat="47.69628" lon="-2.67209">
        <ele>96</ele>
        <time>2013-04-17T13:52:46</time>
      </trkpt>
      <trkpt lat="47.69625" lon="-2.67206">
        <ele>96</ele>
        <time>2013-04-17T13:52:56</time>
      </trkpt>
      <trkpt lat="47.69625" lon="-2.67205">
        <ele>96</ele>
        <time>2013-04-17T13:53:06</time>
      </trkpt>
      <trkpt lat="47.69624" lon="-2.67204">
        <ele>96</ele>
        <time>2013-04-17T13:53:16</time>
      </trkpt>
      <trkpt lat="47.69624" lon="-2.67203">
        <ele>96</ele>
        <time>2013-04-17T13:53:26</time>
      </trkpt>
      <trkpt lat="47.69624" lon="-2.67205">
        <ele>96</ele>
        <time>2013-04-17T13:53:37</time>
      </trkpt>
      <trkpt lat="47.69625" lon="-2.67205">
        <ele>98</ele>
        <time>2013-04-17T13:53:47</time>
      </trkpt>
      <trkpt lat="47.69626" lon="-2.67203">
        <ele>96</ele>
        <time>2013-04-17T13:53:57</time>
      </trkpt>
      <trkpt lat="47.69626" lon="-2.67203">
        <ele>96</ele>
        <time>2013-04-17T13:54:07</time>
      </trkpt>
      <trkpt lat="47.69626" lon="-2.67203">
        <ele>97</ele>
        <time>2013-04-17T13:54:17</time>
      </trkpt>
      <trkpt lat="47.69625" lon="-2.67204">
        <ele>97</ele>
        <time>2013-04-17T13:54:27</time>
      </trkpt>
      <trkpt lat="47.69626" lon="-2.67207">
        <ele>96</ele>
        <time>2013-04-17T13:54:37</time>
      </trkpt>
      <trkpt lat="47.69628" lon="-2.67208">
        <ele>97</ele>
        <time>2013-04-17T13:54:47</time>
      </trkpt>
      <trkpt lat="47.69628" lon="-2.67208">
        <ele>97</ele>
        <time>2013-04-17T13:54:57</time>
      </trkpt>
      <trkpt lat="47.69628" lon="-2.67208">
        <ele>98</ele>
        <time>2013-04-17T13:55:07</time>
      </trkpt>
      <trkpt lat="47.69629" lon="-2.67208">
        <ele>96</ele>
        <time>2013-04-17T13:55:17</time>
      </trkpt>
      <trkpt lat="47.69628" lon="-2.67207">
        <ele>97</ele>
        <time>2013-04-17T13:55:27</time>
      </trkpt>
      <trkpt lat="47.69626" lon="-2.67207">
        <ele>97</ele>
        <time>2013-04-17T13:55:37</time>
      </trkpt>
      <trkpt lat="47.69627" lon="-2.67209">
        <ele>96</ele>
        <time>2013-04-17T13:55:47</time>
      </trkpt>
      <trkpt lat="47.69627" lon="-2.67208">
        <ele>96</ele>
        <time>2013-04-17T13:55:57</time>
      </trkpt>
      <trkpt lat="47.69628" lon="-2.67209">
        <ele>97</ele>
        <time>2013-04-17T13:56:07</time>
      </trkpt>
      <trkpt lat="47.69628" lon="-2.67209">
        <ele>97</ele>
        <time>2013-04-17T13:56:17</time>
      </trkpt>
      <trkpt lat="47.69627" lon="-2.6721">
        <ele>98</ele>
        <time>2013-04-17T13:56:28</time>
      </trkpt>
      <trkpt lat="47.69625" lon="-2.67213">
        <ele>97</ele>
        <time>2013-04-17T13:56:38</time>
      </trkpt>
      <trkpt lat="47.69625" lon="-2.67213">
        <ele>97</ele>
        <time>2013-04-17T13:56:48</time>
      </trkpt>
      <trkpt lat="47.69626" lon="-2.67212">
        <ele>97</ele>
        <time>2013-04-17T13:56:58</time>
      </trkpt>
      <trkpt lat="47.69627" lon="-2.67211">
        <ele>98</ele>
        <time>2013-04-17T13:57:08</time>
      </trkpt>
      <trkpt lat="47.69627" lon="-2.67211">
        <ele>98</ele>
        <time>2013-04-17T13:57:18</time>
      </trkpt>
      <trkpt lat="47.69627" lon="-2.67212">
        <ele>98</ele>
        <time>2013-04-17T13:57:28</time>
      </trkpt>
      <trkpt lat="47.69626" lon="-2.67212">
        <ele>96</ele>
        <time>2013-04-17T13:57:38</time>
      </trkpt>
      <trkpt lat="47.69627" lon="-2.67211">
        <ele>97</ele>
        <time>2013-04-17T13:57:48</time>
      </trkpt>
      <trkpt lat="47.69627" lon="-2.67208">
        <ele>97</ele>
        <time>2013-04-17T13:57:58</time>
      </trkpt>
      <trkpt lat="47.69628" lon="-2.67202">
        <ele>98</ele>
        <time>2013-04-17T13:58:08</time>
      </trkpt>
      <trkpt lat="47.69629" lon="-2.672">
        <ele>97</ele>
        <time>2013-04-17T13:58:18</time>
      </trkpt>
      <trkpt lat="47.69633" lon="-2.672">
        <ele>98</ele>
        <time>2013-04-17T13:58:28</time>
      </trkpt>
      <trkpt lat="47.69632" lon="-2.67199">
        <ele>97</ele>
        <time>2013-04-17T13:58:38</time>
      </trkpt>
      <trkpt lat="47.69631" lon="-2.67199">
        <ele>96</ele>
        <time>2013-04-17T13:58:48</time>
      </trkpt>
      <trkpt lat="47.6963" lon="-2.672">
        <ele>96</ele>
        <time>2013-04-17T13:58:59</time>
      </trkpt>
      <trkpt lat="47.69631" lon="-2.67201">
        <ele>97</ele>
        <time>2013-04-17T13:59:09</time>
      </trkpt>
      <trkpt lat="47.69631" lon="-2.67202">
        <ele>97</ele>
        <time>2013-04-17T13:59:19</time>
      </trkpt>
      <trkpt lat="47.69632" lon="-2.67202">
        <ele>97</ele>
        <time>2013-04-17T13:59:29</time>
      </trkpt>
      <trkpt lat="47.69631" lon="-2.67202">
        <ele>97</ele>
        <time>2013-04-17T13:59:39</time>
      </trkpt>
      <trkpt lat="47.6963" lon="-2.67202">
        <ele>98</ele>
        <time>2013-04-17T13:59:49</time>
      </trkpt>
      <trkpt lat="47.6963" lon="-2.67203">
        <ele>97</ele>
        <time>2013-04-17T13:59:59</time>
      </trkpt>
      <trkpt lat="47.69628" lon="-2.67205">
        <ele>97</ele>
        <time>2013-04-17T14:00:09</time>
      </trkpt>
      <trkpt lat="47.69623" lon="-2.67203">
        <ele>97</ele>
        <time>2013-04-17T14:00:19</time>
      </trkpt>
      <trkpt lat="47.69615" lon="-2.67198">
        <ele>97</ele>
        <time>2013-04-17T14:00:29</time>
      </trkpt>
      <trkpt lat="47.69606" lon="-2.67194">
        <ele>98</ele>
        <time>2013-04-17T14:00:39</time>
      </trkpt>
      <trkpt lat="47.69596" lon="-2.6719">
        <ele>97</ele>
        <time>2013-04-17T14:00:49</time>
      </trkpt>
      <trkpt lat="47.69587" lon="-2.67188">
        <ele>98</ele>
        <time>2013-04-17T14:01:00</time>
      </trkpt>
      <trkpt lat="47.69577" lon="-2.67184">
        <ele>98</ele>
        <time>2013-04-17T14:01:10</time>
      </trkpt>
      <trkpt lat="47.69565" lon="-2.6718">
        <ele>98</ele>
        <time>2013-04-17T14:01:20</time>
      </trkpt>
      <trkpt lat="47.69556" lon="-2.67177">
        <ele>98</ele>
        <time>2013-04-17T14:01:30</time>
      </trkpt>
      <trkpt lat="47.6955" lon="-2.67175">
        <ele>98</ele>
        <time>2013-04-17T14:01:40</time>
      </trkpt>
      <trkpt lat="47.69544" lon="-2.67173">
        <ele>98</ele>
        <time>2013-04-17T14:01:50</time>
      </trkpt>
      <trkpt lat="47.69531" lon="-2.67166">
        <ele>98</ele>
        <time>2013-04-17T14:02:00</time>
      </trkpt>
      <trkpt lat="47.69522" lon="-2.67162">
        <ele>98</ele>
        <time>2013-04-17T14:02:10</time>
      </trkpt>
      <trkpt lat="47.69511" lon="-2.67154">
        <ele>97</ele>
        <time>2013-04-17T14:02:20</time>
      </trkpt>
      <trkpt lat="47.69501" lon="-2.67146">
        <ele>96</ele>
        <time>2013-04-17T14:02:30</time>
      </trkpt>
      <trkpt lat="47.69489" lon="-2.67143">
        <ele>95</ele>
        <time>2013-04-17T14:02:40</time>
      </trkpt>
      <trkpt lat="47.69491" lon="-2.67133">
        <ele>96</ele>
        <time>2013-04-17T14:02:50</time>
      </trkpt>
      <trkpt lat="47.69498" lon="-2.67125">
        <ele>96</ele>
        <time>2013-04-17T14:03:00</time>
      </trkpt>
      <trkpt lat="47.69508" lon="-2.67117">
        <ele>96</ele>
        <time>2013-04-17T14:03:11</time>
      </trkpt>
      <trkpt lat="47.69516" lon="-2.67107">
        <ele>96</ele>
        <time>2013-04-17T14:03:21</time>
      </trkpt>
      <trkpt lat="47.69523" lon="-2.67097">
        <ele>97</ele>
        <time>2013-04-17T14:03:31</time>
      </trkpt>
      <trkpt lat="47.6953" lon="-2.67083">
        <ele>98</ele>
        <time>2013-04-17T14:03:41</time>
      </trkpt>
      <trkpt lat="47.69535" lon="-2.67067">
        <ele>99</ele>
        <time>2013-04-17T14:03:51</time>
      </trkpt>
      <trkpt lat="47.69539" lon="-2.6705">
        <ele>99</ele>
        <time>2013-04-17T14:04:01</time>
      </trkpt>
      <trkpt lat="47.69542" lon="-2.67032">
        <ele>100</ele>
        <time>2013-04-17T14:04:11</time>
      </trkpt>
      <trkpt lat="47.69548" lon="-2.67018">
        <ele>101</ele>
        <time>2013-04-17T14:04:21</time>
      </trkpt>
      <trkpt lat="47.69553" lon="-2.67003">
        <ele>100</ele>
        <time>2013-04-17T14:04:31</time>
      </trkpt>
      <trkpt lat="47.69562" lon="-2.66986">
        <ele>100</ele>
        <time>2013-04-17T14:04:41</time>
      </trkpt>
      <trkpt lat="47.69572" lon="-2.66975">
        <ele>101</ele>
        <time>2013-04-17T14:04:51</time>
      </trkpt>
      <trkpt lat="47.6958" lon="-2.66967">
        <ele>101</ele>
        <time>2013-04-17T14:05:01</time>
      </trkpt>
      <trkpt lat="47.6959" lon="-2.66958">
        <ele>102</ele>
        <time>2013-04-17T14:05:11</time>
      </trkpt>
      <trkpt lat="47.69601" lon="-2.66949">
        <ele>102</ele>
        <time>2013-04-17T14:05:22</time>
      </trkpt>
      <trkpt lat="47.69613" lon="-2.6694">
        <ele>102</ele>
        <time>2013-04-17T14:05:32</time>
      </trkpt>
      <trkpt lat="47.69622" lon="-2.66931">
        <ele>103</ele>
        <time>2013-04-17T14:05:42</time>
      </trkpt>
      <trkpt lat="47.69633" lon="-2.6692">
        <ele>104</ele>
        <time>2013-04-17T14:05:52</time>
      </trkpt>
      <trkpt lat="47.69643" lon="-2.66907">
        <ele>104</ele>
        <time>2013-04-17T14:06:02</time>
      </trkpt>
      <trkpt lat="47.69642" lon="-2.66889">
        <ele>105</ele>
        <time>2013-04-17T14:06:12</time>
      </trkpt>
      <trkpt lat="47.69641" lon="-2.66871">
        <ele>105</ele>
        <time>2013-04-17T14:06:22</time>
      </trkpt>
      <trkpt lat="47.69633" lon="-2.66854">
        <ele>105</ele>
        <time>2013-04-17T14:06:32</time>
      </trkpt>
      <trkpt lat="47.69622" lon="-2.66846">
        <ele>105</ele>
        <time>2013-04-17T14:06:42</time>
      </trkpt>
      <trkpt lat="47.69615" lon="-2.66832">
        <ele>104</ele>
        <time>2013-04-17T14:06:52</time>
      </trkpt>
      <trkpt lat="47.69609" lon="-2.66815">
        <ele>106</ele>
        <time>2013-04-17T14:07:02</time>
      </trkpt>
      <trkpt lat="47.69604" lon="-2.66797">
        <ele>105</ele>
        <time>2013-04-17T14:07:12</time>
      </trkpt>
      <trkpt lat="47.69598" lon="-2.66778">
        <ele>106</ele>
        <time>2013-04-17T14:07:23</time>
      </trkpt>
      <trkpt lat="47.69592" lon="-2.66764">
        <ele>106</ele>
        <time>2013-04-17T14:07:33</time>
      </trkpt>
      <trkpt lat="47.69587" lon="-2.66748">
        <ele>105</ele>
        <time>2013-04-17T14:07:43</time>
      </trkpt>
      <trkpt lat="47.6958" lon="-2.66731">
        <ele>105</ele>
        <time>2013-04-17T14:07:53</time>
      </trkpt>
      <trkpt lat="47.69574" lon="-2.66715">
        <ele>105</ele>
        <time>2013-04-17T14:08:03</time>
      </trkpt>
      <trkpt lat="47.69567" lon="-2.66701">
        <ele>104</ele>
        <time>2013-04-17T14:08:13</time>
      </trkpt>
      <trkpt lat="47.6956" lon="-2.66687">
        <ele>105</ele>
        <time>2013-04-17T14:08:23</time>
      </trkpt>
      <trkpt lat="47.69554" lon="-2.66672">
        <ele>105</ele>
        <time>2013-04-17T14:08:33</time>
      </trkpt>
      <trkpt lat="47.69551" lon="-2.66656">
        <ele>104</ele>
        <time>2013-04-17T14:08:43</time>
      </trkpt>
      <trkpt lat="47.69552" lon="-2.66638">
        <ele>104</ele>
        <time>2013-04-17T14:08:53</time>
      </trkpt>
      <trkpt lat="47.69554" lon="-2.66618">
        <ele>104</ele>
        <time>2013-04-17T14:09:03</time>
      </trkpt>
      <trkpt lat="47.69557" lon="-2.66597">
        <ele>104</ele>
        <time>2013-04-17T14:09:13</time>
      </trkpt>
      <trkpt lat="47.6956" lon="-2.66579">
        <ele>104</ele>
        <time>2013-04-17T14:09:23</time>
      </trkpt>
      <trkpt lat="47.69564" lon="-2.66563">
        <ele>105</ele>
        <time>2013-04-17T14:09:33</time>
      </trkpt>
      <trkpt lat="47.69569" lon="-2.66546">
        <ele>104</ele>
        <time>2013-04-17T14:09:43</time>
      </trkpt>
      <trkpt lat="47.69572" lon="-2.66528">
        <ele>105</ele>
        <time>2013-04-17T14:09:54</time>
      </trkpt>
      <trkpt lat="47.69576" lon="-2.66508">
        <ele>106</ele>
        <time>2013-04-17T14:10:04</time>
      </trkpt>
      <trkpt lat="47.6958" lon="-2.6649">
        <ele>105</ele>
        <time>2013-04-17T14:10:14</time>
      </trkpt>
      <trkpt lat="47.69585" lon="-2.66473">
        <ele>105</ele>
        <time>2013-04-17T14:10:24</time>
      </trkpt>
      <trkpt lat="47.6959" lon="-2.66456">
        <ele>106</ele>
        <time>2013-04-17T14:10:34</time>
      </trkpt>
      <trkpt lat="47.69596" lon="-2.66438">
        <ele>106</ele>
        <time>2013-04-17T14:10:44</time>
      </trkpt>
      <trkpt lat="47.69601" lon="-2.66422">
        <ele>106</ele>
        <time>2013-04-17T14:10:54</time>
      </trkpt>
      <trkpt lat="47.69602" lon="-2.66407">
        <ele>107</ele>
        <time>2013-04-17T14:11:04</time>
      </trkpt>
      <trkpt lat="47.69598" lon="-2.66398">
        <ele>107</ele>
        <time>2013-04-17T14:11:14</time>
      </trkpt>
      <trkpt lat="47.6959" lon="-2.66389">
        <ele>106</ele>
        <time>2013-04-17T14:11:24</time>
      </trkpt>
      <trkpt lat="47.69588" lon="-2.66373">
        <ele>107</ele>
        <time>2013-04-17T14:11:34</time>
      </trkpt>
      <trkpt lat="47.69593" lon="-2.66356">
        <ele>106</ele>
        <time>2013-04-17T14:11:44</time>
      </trkpt>
      <trkpt lat="47.69599" lon="-2.66342">
        <ele>107</ele>
        <time>2013-04-17T14:11:54</time>
      </trkpt>
      <trkpt lat="47.69604" lon="-2.66327">
        <ele>107</ele>
        <time>2013-04-17T14:12:05</time>
      </trkpt>
      <trkpt lat="47.69609" lon="-2.66312">
        <ele>107</ele>
        <time>2013-04-17T14:12:15</time>
      </trkpt>
      <trkpt lat="47.69614" lon="-2.66298">
        <ele>108</ele>
        <time>2013-04-17T14:12:25</time>
      </trkpt>
      <trkpt lat="47.69616" lon="-2.66286">
        <ele>109</ele>
        <time>2013-04-17T14:12:35</time>
      </trkpt>
      <trkpt lat="47.69618" lon="-2.66271">
        <ele>108</ele>
        <time>2013-04-17T14:12:45</time>
      </trkpt>
      <trkpt lat="47.69622" lon="-2.66258">
        <ele>110</ele>
        <time>2013-04-17T14:12:55</time>
      </trkpt>
      <trkpt lat="47.69627" lon="-2.66245">
        <ele>110</ele>
        <time>2013-04-17T14:13:05</time>
      </trkpt>
      <trkpt lat="47.69628" lon="-2.66231">
        <ele>109</ele>
        <time>2013-04-17T14:13:15</time>
      </trkpt>
      <trkpt lat="47.6963" lon="-2.6622">
        <ele>110</ele>
        <time>2013-04-17T14:13:25</time>
      </trkpt>
      <trkpt lat="47.69635" lon="-2.66205">
        <ele>110</ele>
        <time>2013-04-17T14:13:35</time>
      </trkpt>
      <trkpt lat="47.69641" lon="-2.66188">
        <ele>111</ele>
        <time>2013-04-17T14:13:45</time>
      </trkpt>
      <trkpt lat="47.69648" lon="-2.66175">
        <ele>110</ele>
        <time>2013-04-17T14:13:55</time>
      </trkpt>
      <trkpt lat="47.69656" lon="-2.66161">
        <ele>111</ele>
        <time>2013-04-17T14:14:05</time>
      </trkpt>
      <trkpt lat="47.69662" lon="-2.66145">
        <ele>111</ele>
        <time>2013-04-17T14:14:15</time>
      </trkpt>
      <trkpt lat="47.69666" lon="-2.66128">
        <ele>111</ele>
        <time>2013-04-17T14:14:25</time>
      </trkpt>
      <trkpt lat="47.69671" lon="-2.6611">
        <ele>111</ele>
        <time>2013-04-17T14:14:36</time>
      </trkpt>
      <trkpt lat="47.69677" lon="-2.66096">
        <ele>112</ele>
        <time>2013-04-17T14:14:46</time>
      </trkpt>
      <trkpt lat="47.69683" lon="-2.66081">
        <ele>112</ele>
        <time>2013-04-17T14:14:56</time>
      </trkpt>
      <trkpt lat="47.69689" lon="-2.66065">
        <ele>112</ele>
        <time>2013-04-17T14:15:06</time>
      </trkpt>
      <trkpt lat="47.69696" lon="-2.6605">
        <ele>112</ele>
        <time>2013-04-17T14:15:16</time>
      </trkpt>
      <trkpt lat="47.69704" lon="-2.66034">
        <ele>113</ele>
        <time>2013-04-17T14:15:26</time>
      </trkpt>
      <trkpt lat="47.69709" lon="-2.66023">
        <ele>113</ele>
        <time>2013-04-17T14:15:36</time>
      </trkpt>
      <trkpt lat="47.69716" lon="-2.66008">
        <ele>113</ele>
        <time>2013-04-17T14:15:46</time>
      </trkpt>
      <trkpt lat="47.69724" lon="-2.65992">
        <ele>113</ele>
        <time>2013-04-17T14:15:56</time>
      </trkpt>
      <trkpt lat="47.69731" lon="-2.65976">
        <ele>113</ele>
        <time>2013-04-17T14:16:06</time>
      </trkpt>
      <trkpt lat="47.69737" lon="-2.65961">
        <ele>113</ele>
        <time>2013-04-17T14:16:16</time>
      </trkpt>
      <trkpt lat="47.69744" lon="-2.65946">
        <ele>113</ele>
        <time>2013-04-17T14:16:26</time>
      </trkpt>
      <trkpt lat="47.69751" lon="-2.65932">
        <ele>113</ele>
        <time>2013-04-17T14:16:36</time>
      </trkpt>
      <trkpt lat="47.69758" lon="-2.65915">
        <ele>114</ele>
        <time>2013-04-17T14:16:46</time>
      </trkpt>
      <trkpt lat="47.69764" lon="-2.65899">
        <ele>114</ele>
        <time>2013-04-17T14:16:57</time>
      </trkpt>
      <trkpt lat="47.69771" lon="-2.65883">
        <ele>114</ele>
        <time>2013-04-17T14:17:07</time>
      </trkpt>
      <trkpt lat="47.69778" lon="-2.65871">
        <ele>115</ele>
        <time>2013-04-17T14:17:17</time>
      </trkpt>
      <trkpt lat="47.69785" lon="-2.65858">
        <ele>114</ele>
        <time>2013-04-17T14:17:27</time>
      </trkpt>
      <trkpt lat="47.69792" lon="-2.65844">
        <ele>114</ele>
        <time>2013-04-17T14:17:37</time>
      </trkpt>
      <trkpt lat="47.69795" lon="-2.65826">
        <ele>114</ele>
        <time>2013-04-17T14:17:47</time>
      </trkpt>
      <trkpt lat="47.69795" lon="-2.65809">
        <ele>115</ele>
        <time>2013-04-17T14:17:57</time>
      </trkpt>
      <trkpt lat="47.69794" lon="-2.65793">
        <ele>115</ele>
        <time>2013-04-17T14:18:07</time>
      </trkpt>
      <trkpt lat="47.69793" lon="-2.65781">
        <ele>114</ele>
        <time>2013-04-17T14:18:17</time>
      </trkpt>
      <trkpt lat="47.69794" lon="-2.65777">
        <ele>114</ele>
        <time>2013-04-17T14:18:27</time>
      </trkpt>
      <trkpt lat="47.69793" lon="-2.65772">
        <ele>113</ele>
        <time>2013-04-17T14:18:37</time>
      </trkpt>
      <trkpt lat="47.69797" lon="-2.6576">
        <ele>115</ele>
        <time>2013-04-17T14:18:47</time>
      </trkpt>
      <trkpt lat="47.69799" lon="-2.65749">
        <ele>113</ele>
        <time>2013-04-17T14:18:57</time>
      </trkpt>
      <trkpt lat="47.69806" lon="-2.6574">
        <ele>113</ele>
        <time>2013-04-17T14:19:08</time>
      </trkpt>
      <trkpt lat="47.6981" lon="-2.65727">
        <ele>113</ele>
        <time>2013-04-17T14:19:18</time>
      </trkpt>
      <trkpt lat="47.69815" lon="-2.65713">
        <ele>112</ele>
        <time>2013-04-17T14:19:28</time>
      </trkpt>
      <trkpt lat="47.69823" lon="-2.65705">
        <ele>113</ele>
        <time>2013-04-17T14:19:38</time>
      </trkpt>
      <trkpt lat="47.6983" lon="-2.65694">
        <ele>113</ele>
        <time>2013-04-17T14:19:48</time>
      </trkpt>
      <trkpt lat="47.69838" lon="-2.65684">
        <ele>111</ele>
        <time>2013-04-17T14:19:58</time>
      </trkpt>
      <trkpt lat="47.69847" lon="-2.65672">
        <ele>110</ele>
        <time>2013-04-17T14:20:08</time>
      </trkpt>
      <trkpt lat="47.69855" lon="-2.65664">
        <ele>110</ele>
        <time>2013-04-17T14:20:18</time>
      </trkpt>
      <trkpt lat="47.69864" lon="-2.65655">
        <ele>110</ele>
        <time>2013-04-17T14:20:28</time>
      </trkpt>
      <trkpt lat="47.69872" lon="-2.65642">
        <ele>108</ele>
        <time>2013-04-17T14:20:38</time>
      </trkpt>
      <trkpt lat="47.69883" lon="-2.65636">
        <ele>109</ele>
        <time>2013-04-17T14:20:48</time>
      </trkpt>
      <trkpt lat="47.69889" lon="-2.65627">
        <ele>109</ele>
        <time>2013-04-17T14:20:58</time>
      </trkpt>
      <trkpt lat="47.69893" lon="-2.65618">
        <ele>107</ele>
        <time>2013-04-17T14:21:08</time>
      </trkpt>
      <trkpt lat="47.69896" lon="-2.65611">
        <ele>107</ele>
        <time>2013-04-17T14:21:18</time>
      </trkpt>
      <trkpt lat="47.69899" lon="-2.65597">
        <ele>107</ele>
        <time>2013-04-17T14:21:28</time>
      </trkpt>
      <trkpt lat="47.69903" lon="-2.65582">
        <ele>107</ele>
        <time>2013-04-17T14:21:39</time>
      </trkpt>
      <trkpt lat="47.69902" lon="-2.65568">
        <ele>107</ele>
        <time>2013-04-17T14:21:49</time>
      </trkpt>
      <trkpt lat="47.69902" lon="-2.65554">
        <ele>108</ele>
        <time>2013-04-17T14:21:59</time>
      </trkpt>
      <trkpt lat="47.69907" lon="-2.6554">
        <ele>107</ele>
        <time>2013-04-17T14:22:09</time>
      </trkpt>
      <trkpt lat="47.69911" lon="-2.65533">
        <ele>107</ele>
        <time>2013-04-17T14:22:19</time>
      </trkpt>
      <trkpt lat="47.69915" lon="-2.65526">
        <ele>107</ele>
        <time>2013-04-17T14:22:29</time>
      </trkpt>
      <trkpt lat="47.69919" lon="-2.65517">
        <ele>106</ele>
        <time>2013-04-17T14:22:39</time>
      </trkpt>
      <trkpt lat="47.69922" lon="-2.65508">
        <ele>104</ele>
        <time>2013-04-17T14:22:49</time>
      </trkpt>
      <trkpt lat="47.69928" lon="-2.65502">
        <ele>101</ele>
        <time>2013-04-17T14:22:59</time>
      </trkpt>
      <trkpt lat="47.69932" lon="-2.65496">
        <ele>101</ele>
        <time>2013-04-17T14:23:09</time>
      </trkpt>
      <trkpt lat="47.69934" lon="-2.65486">
        <ele>98</ele>
        <time>2013-04-17T14:23:19</time>
      </trkpt>
      <trkpt lat="47.6993" lon="-2.65478">
        <ele>98</ele>
        <time>2013-04-17T14:23:29</time>
      </trkpt>
      <trkpt lat="47.69928" lon="-2.65465">
        <ele>100</ele>
        <time>2013-04-17T14:23:39</time>
      </trkpt>
      <trkpt lat="47.69931" lon="-2.6545">
        <ele>99</ele>
        <time>2013-04-17T14:23:50</time>
      </trkpt>
      <trkpt lat="47.69935" lon="-2.65436">
        <ele>98</ele>
        <time>2013-04-17T14:24:00</time>
      </trkpt>
      <trkpt lat="47.69939" lon="-2.65421">
        <ele>97</ele>
        <time>2013-04-17T14:24:10</time>
      </trkpt>
      <trkpt lat="47.69941" lon="-2.65407">
        <ele>96</ele>
        <time>2013-04-17T14:24:20</time>
      </trkpt>
      <trkpt lat="47.69942" lon="-2.65392">
        <ele>93</ele>
        <time>2013-04-17T14:24:30</time>
      </trkpt>
      <trkpt lat="47.69944" lon="-2.65377">
        <ele>95</ele>
        <time>2013-04-17T14:24:40</time>
      </trkpt>
      <trkpt lat="47.69949" lon="-2.65362">
        <ele>93</ele>
        <time>2013-04-17T14:24:50</time>
      </trkpt>
      <trkpt lat="47.69955" lon="-2.65347">
        <ele>94</ele>
        <time>2013-04-17T14:25:00</time>
      </trkpt>
      <trkpt lat="47.69961" lon="-2.6533">
        <ele>93</ele>
        <time>2013-04-17T14:25:10</time>
      </trkpt>
      <trkpt lat="47.69963" lon="-2.65311">
        <ele>93</ele>
        <time>2013-04-17T14:25:20</time>
      </trkpt>
      <trkpt lat="47.6996" lon="-2.65303">
        <ele>93</ele>
        <time>2013-04-17T14:25:30</time>
      </trkpt>
      <trkpt lat="47.69961" lon="-2.65288">
        <ele>93</ele>
        <time>2013-04-17T14:25:40</time>
      </trkpt>
      <trkpt lat="47.69962" lon="-2.65272">
        <ele>93</ele>
        <time>2013-04-17T14:25:50</time>
      </trkpt>
      <trkpt lat="47.69963" lon="-2.65261">
        <ele>92</ele>
        <time>2013-04-17T14:26:01</time>
      </trkpt>
      <trkpt lat="47.69967" lon="-2.65242">
        <ele>93</ele>
        <time>2013-04-17T14:26:11</time>
      </trkpt>
      <trkpt lat="47.6997" lon="-2.65227">
        <ele>92</ele>
        <time>2013-04-17T14:26:21</time>
      </trkpt>
      <trkpt lat="47.69973" lon="-2.65211">
        <ele>92</ele>
        <time>2013-04-17T14:26:31</time>
      </trkpt>
      <trkpt lat="47.69976" lon="-2.65197">
        <ele>92</ele>
        <time>2013-04-17T14:26:41</time>
      </trkpt>
      <trkpt lat="47.69977" lon="-2.65185">
        <ele>92</ele>
        <time>2013-04-17T14:26:51</time>
      </trkpt>
      <trkpt lat="47.69975" lon="-2.65179">
        <ele>91</ele>
        <time>2013-04-17T14:27:01</time>
      </trkpt>
      <trkpt lat="47.69978" lon="-2.65171">
        <ele>92</ele>
        <time>2013-04-17T14:27:11</time>
      </trkpt>
      <trkpt lat="47.69984" lon="-2.65158">
        <ele>91</ele>
        <time>2013-04-17T14:27:21</time>
      </trkpt>
      <trkpt lat="47.69989" lon="-2.65149">
        <ele>91</ele>
        <time>2013-04-17T14:27:31</time>
      </trkpt>
      <trkpt lat="47.69991" lon="-2.6514">
        <ele>91</ele>
        <time>2013-04-17T14:27:41</time>
      </trkpt>
      <trkpt lat="47.69993" lon="-2.65128">
        <ele>90</ele>
        <time>2013-04-17T14:27:51</time>
      </trkpt>
      <trkpt lat="47.7" lon="-2.65112">
        <ele>90</ele>
        <time>2013-04-17T14:28:02</time>
      </trkpt>
      <trkpt lat="47.70007" lon="-2.65094">
        <ele>90</ele>
        <time>2013-04-17T14:28:12</time>
      </trkpt>
      <trkpt lat="47.70008" lon="-2.65078">
        <ele>89</ele>
        <time>2013-04-17T14:28:22</time>
      </trkpt>
      <trkpt lat="47.70008" lon="-2.6506">
        <ele>89</ele>
        <time>2013-04-17T14:28:32</time>
      </trkpt>
      <trkpt lat="47.7001" lon="-2.65043">
        <ele>89</ele>
        <time>2013-04-17T14:28:42</time>
      </trkpt>
      <trkpt lat="47.70012" lon="-2.65025">
        <ele>89</ele>
        <time>2013-04-17T14:28:52</time>
      </trkpt>
      <trkpt lat="47.70014" lon="-2.65016">
        <ele>89</ele>
        <time>2013-04-17T14:29:02</time>
      </trkpt>
      <trkpt lat="47.70011" lon="-2.65009">
        <ele>89</ele>
        <time>2013-04-17T14:29:12</time>
      </trkpt>
      <trkpt lat="47.7001" lon="-2.64995">
        <ele>89</ele>
        <time>2013-04-17T14:29:22</time>
      </trkpt>
      <trkpt lat="47.70013" lon="-2.6498">
        <ele>89</ele>
        <time>2013-04-17T14:29:32</time>
      </trkpt>
      <trkpt lat="47.70014" lon="-2.64962">
        <ele>90</ele>
        <time>2013-04-17T14:29:42</time>
      </trkpt>
      <trkpt lat="47.70011" lon="-2.64943">
        <ele>89</ele>
        <time>2013-04-17T14:29:53</time>
      </trkpt>
      <trkpt lat="47.70009" lon="-2.64925">
        <ele>89</ele>
        <time>2013-04-17T14:30:03</time>
      </trkpt>
      <trkpt lat="47.70012" lon="-2.64907">
        <ele>89</ele>
        <time>2013-04-17T14:30:13</time>
      </trkpt>
      <trkpt lat="47.70012" lon="-2.64889">
        <ele>89</ele>
        <time>2013-04-17T14:30:23</time>
      </trkpt>
      <trkpt lat="47.70009" lon="-2.64869">
        <ele>90</ele>
        <time>2013-04-17T14:30:33</time>
      </trkpt>
      <trkpt lat="47.70007" lon="-2.64852">
        <ele>89</ele>
        <time>2013-04-17T14:30:43</time>
      </trkpt>
      <trkpt lat="47.70006" lon="-2.64831">
        <ele>89</ele>
        <time>2013-04-17T14:30:53</time>
      </trkpt>
      <trkpt lat="47.70005" lon="-2.64814">
        <ele>89</ele>
        <time>2013-04-17T14:31:03</time>
      </trkpt>
      <trkpt lat="47.70004" lon="-2.64798">
        <ele>90</ele>
        <time>2013-04-17T14:31:13</time>
      </trkpt>
      <trkpt lat="47.70006" lon="-2.6478">
        <ele>89</ele>
        <time>2013-04-17T14:31:23</time>
      </trkpt>
      <trkpt lat="47.70007" lon="-2.64762">
        <ele>88</ele>
        <time>2013-04-17T14:31:33</time>
      </trkpt>
      <trkpt lat="47.70007" lon="-2.64745">
        <ele>88</ele>
        <time>2013-04-17T14:31:43</time>
      </trkpt>
      <trkpt lat="47.70007" lon="-2.64731">
        <ele>88</ele>
        <time>2013-04-17T14:31:53</time>
      </trkpt>
      <trkpt lat="47.70007" lon="-2.64723">
        <ele>88</ele>
        <time>2013-04-17T14:32:03</time>
      </trkpt>
      <trkpt lat="47.70008" lon="-2.6471">
        <ele>88</ele>
        <time>2013-04-17T14:32:13</time>
      </trkpt>
      <trkpt lat="47.70008" lon="-2.64697">
        <ele>88</ele>
        <time>2013-04-17T14:32:23</time>
      </trkpt>
      <trkpt lat="47.70005" lon="-2.64682">
        <ele>88</ele>
        <time>2013-04-17T14:32:34</time>
      </trkpt>
      <trkpt lat="47.70007" lon="-2.64667">
        <ele>88</ele>
        <time>2013-04-17T14:32:44</time>
      </trkpt>
      <trkpt lat="47.70006" lon="-2.64649">
        <ele>88</ele>
        <time>2013-04-17T14:32:54</time>
      </trkpt>
      <trkpt lat="47.70004" lon="-2.64632">
        <ele>88</ele>
        <time>2013-04-17T14:33:04</time>
      </trkpt>
      <trkpt lat="47.70001" lon="-2.64614">
        <ele>88</ele>
        <time>2013-04-17T14:33:14</time>
      </trkpt>
      <trkpt lat="47.69999" lon="-2.64596">
        <ele>88</ele>
        <time>2013-04-17T14:33:24</time>
      </trkpt>
      <trkpt lat="47.69999" lon="-2.64581">
        <ele>88</ele>
        <time>2013-04-17T14:33:34</time>
      </trkpt>
      <trkpt lat="47.7" lon="-2.64561">
        <ele>89</ele>
        <time>2013-04-17T14:33:44</time>
      </trkpt>
      <trkpt lat="47.70003" lon="-2.64543">
        <ele>89</ele>
        <time>2013-04-17T14:33:54</time>
      </trkpt>
      <trkpt lat="47.70001" lon="-2.64528">
        <ele>90</ele>
        <time>2013-04-17T14:34:04</time>
      </trkpt>
      <trkpt lat="47.69997" lon="-2.64514">
        <ele>90</ele>
        <time>2013-04-17T14:34:14</time>
      </trkpt>
      <trkpt lat="47.70001" lon="-2.64495">
        <ele>87</ele>
        <time>2013-04-17T14:34:24</time>
      </trkpt>
      <trkpt lat="47.70006" lon="-2.64477">
        <ele>88</ele>
        <time>2013-04-17T14:34:35</time>
      </trkpt>
      <trkpt lat="47.70007" lon="-2.64459">
        <ele>88</ele>
        <time>2013-04-17T14:34:45</time>
      </trkpt>
      <trkpt lat="47.70009" lon="-2.6444">
        <ele>87</ele>
        <time>2013-04-17T14:34:55</time>
      </trkpt>
      <trkpt lat="47.7001" lon="-2.64422">
        <ele>87</ele>
        <time>2013-04-17T14:35:05</time>
      </trkpt>
      <trkpt lat="47.7001" lon="-2.64404">
        <ele>87</ele>
        <time>2013-04-17T14:35:15</time>
      </trkpt>
      <trkpt lat="47.70012" lon="-2.64384">
        <ele>86</ele>
        <time>2013-04-17T14:35:25</time>
      </trkpt>
      <trkpt lat="47.70014" lon="-2.64366">
        <ele>86</ele>
        <time>2013-04-17T14:35:35</time>
      </trkpt>
      <trkpt lat="47.70015" lon="-2.64351">
        <ele>85</ele>
        <time>2013-04-17T14:35:45</time>
      </trkpt>
      <trkpt lat="47.70017" lon="-2.64333">
        <ele>86</ele>
        <time>2013-04-17T14:35:55</time>
      </trkpt>
      <trkpt lat="47.70019" lon="-2.64314">
        <ele>85</ele>
        <time>2013-04-17T14:36:05</time>
      </trkpt>
      <trkpt lat="47.70019" lon="-2.64295">
        <ele>84</ele>
        <time>2013-04-17T14:36:15</time>
      </trkpt>
      <trkpt lat="47.70019" lon="-2.64274">
        <ele>83</ele>
        <time>2013-04-17T14:36:25</time>
      </trkpt>
      <trkpt lat="47.7002" lon="-2.64258">
        <ele>83</ele>
        <time>2013-04-17T14:36:35</time>
      </trkpt>
      <trkpt lat="47.70021" lon="-2.64242">
        <ele>83</ele>
        <time>2013-04-17T14:36:46</time>
      </trkpt>
      <trkpt lat="47.70019" lon="-2.64235">
        <ele>83</ele>
        <time>2013-04-17T14:36:56</time>
      </trkpt>
      <trkpt lat="47.70013" lon="-2.64234">
        <ele>84</ele>
        <time>2013-04-17T14:37:06</time>
      </trkpt>
      <trkpt lat="47.70009" lon="-2.64231">
        <ele>84</ele>
        <time>2013-04-17T14:37:16</time>
      </trkpt>
      <trkpt lat="47.70006" lon="-2.64227">
        <ele>85</ele>
        <time>2013-04-17T14:37:26</time>
      </trkpt>
      <trkpt lat="47.70005" lon="-2.64222">
        <ele>84</ele>
        <time>2013-04-17T14:37:36</time>
      </trkpt>
      <trkpt lat="47.70004" lon="-2.64219">
        <ele>85</ele>
        <time>2013-04-17T14:37:46</time>
      </trkpt>
      <trkpt lat="47.70005" lon="-2.64219">
        <ele>86</ele>
        <time>2013-04-17T14:37:56</time>
      </trkpt>
      <trkpt lat="47.7001" lon="-2.64224">
        <ele>85</ele>
        <time>2013-04-17T14:38:06</time>
      </trkpt>
      <trkpt lat="47.70013" lon="-2.64228">
        <ele>84</ele>
        <time>2013-04-17T14:38:16</time>
      </trkpt>
      <trkpt lat="47.70018" lon="-2.6423">
        <ele>82</ele>
        <time>2013-04-17T14:38:26</time>
      </trkpt>
      <trkpt lat="47.70023" lon="-2.64223">
        <ele>83</ele>
        <time>2013-04-17T14:38:36</time>
      </trkpt>
      <trkpt lat="47.7003" lon="-2.64212">
        <ele>82</ele>
        <time>2013-04-17T14:38:46</time>
      </trkpt>
      <trkpt lat="47.70037" lon="-2.64201">
        <ele>81</ele>
        <time>2013-04-17T14:38:56</time>
      </trkpt>
      <trkpt lat="47.70039" lon="-2.64198">
        <ele>81</ele>
        <time>2013-04-17T14:39:06</time>
      </trkpt>
      <trkpt lat="47.70042" lon="-2.64196">
        <ele>81</ele>
        <time>2013-04-17T14:39:17</time>
      </trkpt>
      <trkpt lat="47.70041" lon="-2.64183">
        <ele>80</ele>
        <time>2013-04-17T14:39:27</time>
      </trkpt>
      <trkpt lat="47.70037" lon="-2.64168">
        <ele>80</ele>
        <time>2013-04-17T14:39:37</time>
      </trkpt>
      <trkpt lat="47.70034" lon="-2.64154">
        <ele>81</ele>
        <time>2013-04-17T14:39:47</time>
      </trkpt>
      <trkpt lat="47.70032" lon="-2.64139">
        <ele>81</ele>
        <time>2013-04-17T14:39:57</time>
      </trkpt>
      <trkpt lat="47.7003" lon="-2.64123">
        <ele>81</ele>
        <time>2013-04-17T14:40:07</time>
      </trkpt>
      <trkpt lat="47.70028" lon="-2.64108">
        <ele>80</ele>
        <time>2013-04-17T14:40:17</time>
      </trkpt>
      <trkpt lat="47.70026" lon="-2.64094">
        <ele>82</ele>
        <time>2013-04-17T14:40:27</time>
      </trkpt>
      <trkpt lat="47.70025" lon="-2.64077">
        <ele>81</ele>
        <time>2013-04-17T14:40:37</time>
      </trkpt>
      <trkpt lat="47.70023" lon="-2.6406">
        <ele>81</ele>
        <time>2013-04-17T14:40:47</time>
      </trkpt>
      <trkpt lat="47.70023" lon="-2.64042">
        <ele>81</ele>
        <time>2013-04-17T14:40:57</time>
      </trkpt>
      <trkpt lat="47.70022" lon="-2.64026">
        <ele>80</ele>
        <time>2013-04-17T14:41:07</time>
      </trkpt>
      <trkpt lat="47.7002" lon="-2.64009">
        <ele>80</ele>
        <time>2013-04-17T14:41:17</time>
      </trkpt>
      <trkpt lat="47.70018" lon="-2.63993">
        <ele>81</ele>
        <time>2013-04-17T14:41:27</time>
      </trkpt>
      <trkpt lat="47.70016" lon="-2.63975">
        <ele>81</ele>
        <time>2013-04-17T14:41:38</time>
      </trkpt>
      <trkpt lat="47.70013" lon="-2.63957">
        <ele>82</ele>
        <time>2013-04-17T14:41:48</time>
      </trkpt>
      <trkpt lat="47.70009" lon="-2.63939">
        <ele>81</ele>
        <time>2013-04-17T14:41:58</time>
      </trkpt>
      <trkpt lat="47.70005" lon="-2.63921">
        <ele>81</ele>
        <time>2013-04-17T14:42:08</time>
      </trkpt>
      <trkpt lat="47.70004" lon="-2.63914">
        <ele>79</ele>
        <time>2013-04-17T14:42:18</time>
      </trkpt>
      <trkpt lat="47.70002" lon="-2.63913">
        <ele>81</ele>
        <time>2013-04-17T14:42:28</time>
      </trkpt>
      <trkpt lat="47.69998" lon="-2.63901">
        <ele>81</ele>
        <time>2013-04-17T14:42:38</time>
      </trkpt>
      <trkpt lat="47.69994" lon="-2.63883">
        <ele>81</ele>
        <time>2013-04-17T14:42:48</time>
      </trkpt>
      <trkpt lat="47.69992" lon="-2.63869">
        <ele>81</ele>
        <time>2013-04-17T14:42:58</time>
      </trkpt>
      <trkpt lat="47.69988" lon="-2.63854">
        <ele>82</ele>
        <time>2013-04-17T14:43:08</time>
      </trkpt>
      <trkpt lat="47.69985" lon="-2.63839">
        <ele>81</ele>
        <time>2013-04-17T14:43:18</time>
      </trkpt>
      <trkpt lat="47.6998" lon="-2.63822">
        <ele>81</ele>
        <time>2013-04-17T14:43:28</time>
      </trkpt>
      <trkpt lat="47.69978" lon="-2.63804">
        <ele>82</ele>
        <time>2013-04-17T14:43:39</time>
      </trkpt>
      <trkpt lat="47.69975" lon="-2.63785">
        <ele>81</ele>
        <time>2013-04-17T14:43:49</time>
      </trkpt>
      <trkpt lat="47.69974" lon="-2.63767">
        <ele>81</ele>
        <time>2013-04-17T14:43:59</time>
      </trkpt>
      <trkpt lat="47.69973" lon="-2.6375">
        <ele>80</ele>
        <time>2013-04-17T14:44:09</time>
      </trkpt>
      <trkpt lat="47.69971" lon="-2.63732">
        <ele>80</ele>
        <time>2013-04-17T14:44:19</time>
      </trkpt>
      <trkpt lat="47.69968" lon="-2.63715">
        <ele>80</ele>
        <time>2013-04-17T14:44:29</time>
      </trkpt>
      <trkpt lat="47.69965" lon="-2.63697">
        <ele>80</ele>
        <time>2013-04-17T14:44:39</time>
      </trkpt>
      <trkpt lat="47.69962" lon="-2.63678">
        <ele>80</ele>
        <time>2013-04-17T14:44:49</time>
      </trkpt>
      <trkpt lat="47.69959" lon="-2.63662">
        <ele>79</ele>
        <time>2013-04-17T14:44:59</time>
      </trkpt>
      <trkpt lat="47.69956" lon="-2.63645">
        <ele>79</ele>
        <time>2013-04-17T14:45:09</time>
      </trkpt>
      <trkpt lat="47.69954" lon="-2.63629">
        <ele>79</ele>
        <time>2013-04-17T14:45:19</time>
      </trkpt>
      <trkpt lat="47.69951" lon="-2.63611">
        <ele>78</ele>
        <time>2013-04-17T14:45:29</time>
      </trkpt>
      <trkpt lat="47.6995" lon="-2.63593">
        <ele>81</ele>
        <time>2013-04-17T14:45:40</time>
      </trkpt>
      <trkpt lat="47.69949" lon="-2.63572">
        <ele>78</ele>
        <time>2013-04-17T14:45:50</time>
      </trkpt>
      <trkpt lat="47.69949" lon="-2.63554">
        <ele>79</ele>
        <time>2013-04-17T14:46:00</time>
      </trkpt>
      <trkpt lat="47.69953" lon="-2.63538">
        <ele>80</ele>
        <time>2013-04-17T14:46:10</time>
      </trkpt>
      <trkpt lat="47.69961" lon="-2.63529">
        <ele>79</ele>
        <time>2013-04-17T14:46:20</time>
      </trkpt>
      <trkpt lat="47.6997" lon="-2.63522">
        <ele>77</ele>
        <time>2013-04-17T14:46:30</time>
      </trkpt>
      <trkpt lat="47.69979" lon="-2.63514">
        <ele>77</ele>
        <time>2013-04-17T14:46:40</time>
      </trkpt>
      <trkpt lat="47.69989" lon="-2.63503">
        <ele>76</ele>
        <time>2013-04-17T14:46:50</time>
      </trkpt>
      <trkpt lat="47.69997" lon="-2.63493">
        <ele>74</ele>
        <time>2013-04-17T14:47:00</time>
      </trkpt>
      <trkpt lat="47.70003" lon="-2.6348">
        <ele>73</ele>
        <time>2013-04-17T14:47:10</time>
      </trkpt>
      <trkpt lat="47.70007" lon="-2.63466">
        <ele>70</ele>
        <time>2013-04-17T14:47:20</time>
      </trkpt>
      <trkpt lat="47.7001" lon="-2.63451">
        <ele>70</ele>
        <time>2013-04-17T14:47:30</time>
      </trkpt>
      <trkpt lat="47.70015" lon="-2.63437">
        <ele>69</ele>
        <time>2013-04-17T14:47:40</time>
      </trkpt>
      <trkpt lat="47.70022" lon="-2.63421">
        <ele>68</ele>
        <time>2013-04-17T14:47:50</time>
      </trkpt>
      <trkpt lat="47.70026" lon="-2.63418">
        <ele>67</ele>
        <time>2013-04-17T14:48:00</time>
      </trkpt>
      <trkpt lat="47.70028" lon="-2.63415">
        <ele>67</ele>
        <time>2013-04-17T14:48:10</time>
      </trkpt>
      <trkpt lat="47.70029" lon="-2.63413">
        <ele>67</ele>
        <time>2013-04-17T14:48:21</time>
      </trkpt>
      <trkpt lat="47.70027" lon="-2.63407">
        <ele>67</ele>
        <time>2013-04-17T14:48:31</time>
      </trkpt>
      <trkpt lat="47.70028" lon="-2.63399">
        <ele>66</ele>
        <time>2013-04-17T14:48:41</time>
      </trkpt>
      <trkpt lat="47.70023" lon="-2.63381">
        <ele>67</ele>
        <time>2013-04-17T14:48:51</time>
      </trkpt>
      <trkpt lat="47.70024" lon="-2.63365">
        <ele>67</ele>
        <time>2013-04-17T14:49:01</time>
      </trkpt>
      <trkpt lat="47.70032" lon="-2.63351">
        <ele>67</ele>
        <time>2013-04-17T14:49:11</time>
      </trkpt>
      <trkpt lat="47.70038" lon="-2.63336">
        <ele>67</ele>
        <time>2013-04-17T14:49:21</time>
      </trkpt>
      <trkpt lat="47.70041" lon="-2.63322">
        <ele>69</ele>
        <time>2013-04-17T14:49:31</time>
      </trkpt>
      <trkpt lat="47.70037" lon="-2.63312">
        <ele>69</ele>
        <time>2013-04-17T14:49:41</time>
      </trkpt>
      <trkpt lat="47.70033" lon="-2.63299">
        <ele>70</ele>
        <time>2013-04-17T14:49:51</time>
      </trkpt>
      <trkpt lat="47.70029" lon="-2.63285">
        <ele>70</ele>
        <time>2013-04-17T14:50:01</time>
      </trkpt>
      <trkpt lat="47.70026" lon="-2.63269">
        <ele>71</ele>
        <time>2013-04-17T14:50:11</time>
      </trkpt>
      <trkpt lat="47.70023" lon="-2.63254">
        <ele>72</ele>
        <time>2013-04-17T14:50:21</time>
      </trkpt>
      <trkpt lat="47.70021" lon="-2.63241">
        <ele>73</ele>
        <time>2013-04-17T14:50:31</time>
      </trkpt>
      <trkpt lat="47.70017" lon="-2.63224">
        <ele>74</ele>
        <time>2013-04-17T14:50:42</time>
      </trkpt>
      <trkpt lat="47.70014" lon="-2.63204">
        <ele>75</ele>
        <time>2013-04-17T14:50:52</time>
      </trkpt>
      <trkpt lat="47.70011" lon="-2.63186">
        <ele>75</ele>
        <time>2013-04-17T14:51:02</time>
      </trkpt>
      <trkpt lat="47.70006" lon="-2.63169">
        <ele>77</ele>
        <time>2013-04-17T14:51:12</time>
      </trkpt>
      <trkpt lat="47.69999" lon="-2.63155">
        <ele>77</ele>
        <time>2013-04-17T14:51:22</time>
      </trkpt>
      <trkpt lat="47.6999" lon="-2.63145">
        <ele>78</ele>
        <time>2013-04-17T14:51:32</time>
      </trkpt>
      <trkpt lat="47.6998" lon="-2.63136">
        <ele>78</ele>
        <time>2013-04-17T14:51:42</time>
      </trkpt>
      <trkpt lat="47.6997" lon="-2.63125">
        <ele>79</ele>
        <time>2013-04-17T14:51:52</time>
      </trkpt>
      <trkpt lat="47.69963" lon="-2.63118">
        <ele>79</ele>
        <time>2013-04-17T14:52:02</time>
      </trkpt>
      <trkpt lat="47.69956" lon="-2.63108">
        <ele>81</ele>
        <time>2013-04-17T14:52:12</time>
      </trkpt>
      <trkpt lat="47.69959" lon="-2.63092">
        <ele>80</ele>
        <time>2013-04-17T14:52:22</time>
      </trkpt>
      <trkpt lat="47.69966" lon="-2.63079">
        <ele>80</ele>
        <time>2013-04-17T14:52:32</time>
      </trkpt>
      <trkpt lat="47.6997" lon="-2.63068">
        <ele>78</ele>
        <time>2013-04-17T14:52:43</time>
      </trkpt>
      <trkpt lat="47.69976" lon="-2.63054">
        <ele>77</ele>
        <time>2013-04-17T14:52:53</time>
      </trkpt>
      <trkpt lat="47.69984" lon="-2.6304">
        <ele>77</ele>
        <time>2013-04-17T14:53:03</time>
      </trkpt>
      <trkpt lat="47.6999" lon="-2.63026">
        <ele>75</ele>
        <time>2013-04-17T14:53:13</time>
      </trkpt>
      <trkpt lat="47.69994" lon="-2.6301">
        <ele>74</ele>
        <time>2013-04-17T14:53:23</time>
      </trkpt>
      <trkpt lat="47.7" lon="-2.62995">
        <ele>74</ele>
        <time>2013-04-17T14:53:33</time>
      </trkpt>
      <trkpt lat="47.70005" lon="-2.6298">
        <ele>73</ele>
        <time>2013-04-17T14:53:43</time>
      </trkpt>
      <trkpt lat="47.70013" lon="-2.62964">
        <ele>73</ele>
        <time>2013-04-17T14:53:53</time>
      </trkpt>
      <trkpt lat="47.70019" lon="-2.62951">
        <ele>72</ele>
        <time>2013-04-17T14:54:03</time>
      </trkpt>
      <trkpt lat="47.70025" lon="-2.62938">
        <ele>71</ele>
        <time>2013-04-17T14:54:13</time>
      </trkpt>
      <trkpt lat="47.70035" lon="-2.62922">
        <ele>70</ele>
        <time>2013-04-17T14:54:23</time>
      </trkpt>
      <trkpt lat="47.70043" lon="-2.62904">
        <ele>69</ele>
        <time>2013-04-17T14:54:33</time>
      </trkpt>
      <trkpt lat="47.7005" lon="-2.6289">
        <ele>69</ele>
        <time>2013-04-17T14:54:43</time>
      </trkpt>
      <trkpt lat="47.70055" lon="-2.62887">
        <ele>68</ele>
        <time>2013-04-17T14:54:53</time>
      </trkpt>
      <trkpt lat="47.70065" lon="-2.62889">
        <ele>68</ele>
        <time>2013-04-17T14:55:03</time>
      </trkpt>
      <trkpt lat="47.70073" lon="-2.62898">
        <ele>67</ele>
        <time>2013-04-17T14:55:13</time>
      </trkpt>
      <trkpt lat="47.70078" lon="-2.62911">
        <ele>66</ele>
        <time>2013-04-17T14:55:23</time>
      </trkpt>
      <trkpt lat="47.70084" lon="-2.62923">
        <ele>65</ele>
        <time>2013-04-17T14:55:34</time>
      </trkpt>
      <trkpt lat="47.70087" lon="-2.62938">
        <ele>64</ele>
        <time>2013-04-17T14:55:44</time>
      </trkpt>
      <trkpt lat="47.70089" lon="-2.62952">
        <ele>65</ele>
        <time>2013-04-17T14:55:54</time>
      </trkpt>
      <trkpt lat="47.70094" lon="-2.62968">
        <ele>64</ele>
        <time>2013-04-17T14:56:04</time>
      </trkpt>
      <trkpt lat="47.70096" lon="-2.62981">
        <ele>64</ele>
        <time>2013-04-17T14:56:14</time>
      </trkpt>
      <trkpt lat="47.70101" lon="-2.62994">
        <ele>64</ele>
        <time>2013-04-17T14:56:24</time>
      </trkpt>
      <trkpt lat="47.70108" lon="-2.63006">
        <ele>65</ele>
        <time>2013-04-17T14:56:34</time>
      </trkpt>
      <trkpt lat="47.70111" lon="-2.63021">
        <ele>65</ele>
        <time>2013-04-17T14:56:44</time>
      </trkpt>
      <trkpt lat="47.70114" lon="-2.6304">
        <ele>65</ele>
        <time>2013-04-17T14:56:54</time>
      </trkpt>
      <trkpt lat="47.70119" lon="-2.63058">
        <ele>65</ele>
        <time>2013-04-17T14:57:04</time>
      </trkpt>
      <trkpt lat="47.70127" lon="-2.63072">
        <ele>65</ele>
        <time>2013-04-17T14:57:14</time>
      </trkpt>
      <trkpt lat="47.70133" lon="-2.63089">
        <ele>66</ele>
        <time>2013-04-17T14:57:24</time>
      </trkpt>
      <trkpt lat="47.70136" lon="-2.63106">
        <ele>67</ele>
        <time>2013-04-17T14:57:34</time>
      </trkpt>
      <trkpt lat="47.70144" lon="-2.63125">
        <ele>67</ele>
        <time>2013-04-17T14:57:44</time>
      </trkpt>
      <trkpt lat="47.70149" lon="-2.63144">
        <ele>68</ele>
        <time>2013-04-17T14:57:54</time>
      </trkpt>
      <trkpt lat="47.70152" lon="-2.63164">
        <ele>67</ele>
        <time>2013-04-17T14:58:04</time>
      </trkpt>
      <trkpt lat="47.70155" lon="-2.63181">
        <ele>68</ele>
        <time>2013-04-17T14:58:15</time>
      </trkpt>
      <trkpt lat="47.70158" lon="-2.63198">
        <ele>68</ele>
        <time>2013-04-17T14:58:25</time>
      </trkpt>
      <trkpt lat="47.70162" lon="-2.63216">
        <ele>67</ele>
        <time>2013-04-17T14:58:35</time>
      </trkpt>
      <trkpt lat="47.70165" lon="-2.63235">
        <ele>68</ele>
        <time>2013-04-17T14:58:45</time>
      </trkpt>
      <trkpt lat="47.70168" lon="-2.63251">
        <ele>69</ele>
        <time>2013-04-17T14:58:55</time>
      </trkpt>
      <trkpt lat="47.70173" lon="-2.6327">
        <ele>67</ele>
        <time>2013-04-17T14:59:05</time>
      </trkpt>
      <trkpt lat="47.70176" lon="-2.63287">
        <ele>69</ele>
        <time>2013-04-17T14:59:15</time>
      </trkpt>
      <trkpt lat="47.70179" lon="-2.63301">
        <ele>68</ele>
        <time>2013-04-17T14:59:25</time>
      </trkpt>
      <trkpt lat="47.70183" lon="-2.63318">
        <ele>67</ele>
        <time>2013-04-17T14:59:35</time>
      </trkpt>
      <trkpt lat="47.70187" lon="-2.63336">
        <ele>66</ele>
        <time>2013-04-17T14:59:45</time>
      </trkpt>
      <trkpt lat="47.70192" lon="-2.63354">
        <ele>65</ele>
        <time>2013-04-17T14:59:55</time>
      </trkpt>
      <trkpt lat="47.70195" lon="-2.63371">
        <ele>66</ele>
        <time>2013-04-17T15:00:05</time>
      </trkpt>
      <trkpt lat="47.70199" lon="-2.63389">
        <ele>65</ele>
        <time>2013-04-17T15:00:15</time>
      </trkpt>
      <trkpt lat="47.70202" lon="-2.63407">
        <ele>65</ele>
        <time>2013-04-17T15:00:25</time>
      </trkpt>
      <trkpt lat="47.70206" lon="-2.63423">
        <ele>66</ele>
        <time>2013-04-17T15:00:36</time>
      </trkpt>
      <trkpt lat="47.70208" lon="-2.6344">
        <ele>65</ele>
        <time>2013-04-17T15:00:46</time>
      </trkpt>
      <trkpt lat="47.70211" lon="-2.63458">
        <ele>65</ele>
        <time>2013-04-17T15:00:56</time>
      </trkpt>
      <trkpt lat="47.70213" lon="-2.63476">
        <ele>65</ele>
        <time>2013-04-17T15:01:06</time>
      </trkpt>
      <trkpt lat="47.70216" lon="-2.63496">
        <ele>65</ele>
        <time>2013-04-17T15:01:16</time>
      </trkpt>
      <trkpt lat="47.7022" lon="-2.63514">
        <ele>65</ele>
        <time>2013-04-17T15:01:26</time>
      </trkpt>
      <trkpt lat="47.70222" lon="-2.63532">
        <ele>65</ele>
        <time>2013-04-17T15:01:36</time>
      </trkpt>
      <trkpt lat="47.70226" lon="-2.6355">
        <ele>65</ele>
        <time>2013-04-17T15:01:46</time>
      </trkpt>
      <trkpt lat="47.70231" lon="-2.6357">
        <ele>66</ele>
        <time>2013-04-17T15:01:56</time>
      </trkpt>
      <trkpt lat="47.70235" lon="-2.63587">
        <ele>64</ele>
        <time>2013-04-17T15:02:06</time>
      </trkpt>
      <trkpt lat="47.70237" lon="-2.63607">
        <ele>65</ele>
        <time>2013-04-17T15:02:16</time>
      </trkpt>
      <trkpt lat="47.70239" lon="-2.63624">
        <ele>65</ele>
        <time>2013-04-17T15:02:27</time>
      </trkpt>
      <trkpt lat="47.70242" lon="-2.63642">
        <ele>65</ele>
        <time>2013-04-17T15:02:37</time>
      </trkpt>
      <trkpt lat="47.70244" lon="-2.63663">
        <ele>65</ele>
        <time>2013-04-17T15:02:47</time>
      </trkpt>
      <trkpt lat="47.70244" lon="-2.63685">
        <ele>66</ele>
        <time>2013-04-17T15:02:57</time>
      </trkpt>
      <trkpt lat="47.70246" lon="-2.63707">
        <ele>65</ele>
        <time>2013-04-17T15:03:07</time>
      </trkpt>
      <trkpt lat="47.70246" lon="-2.63726">
        <ele>64</ele>
        <time>2013-04-17T15:03:17</time>
      </trkpt>
      <trkpt lat="47.70248" lon="-2.63744">
        <ele>64</ele>
        <time>2013-04-17T15:03:27</time>
      </trkpt>
      <trkpt lat="47.70248" lon="-2.63761">
        <ele>63</ele>
        <time>2013-04-17T15:03:37</time>
      </trkpt>
      <trkpt lat="47.70247" lon="-2.63778">
        <ele>64</ele>
        <time>2013-04-17T15:03:47</time>
      </trkpt>
      <trkpt lat="47.70246" lon="-2.63795">
        <ele>66</ele>
        <time>2013-04-17T15:03:57</time>
      </trkpt>
      <trkpt lat="47.70245" lon="-2.63811">
        <ele>65</ele>
        <time>2013-04-17T15:04:07</time>
      </trkpt>
      <trkpt lat="47.70245" lon="-2.6383">
        <ele>66</ele>
        <time>2013-04-17T15:04:17</time>
      </trkpt>
      <trkpt lat="47.70245" lon="-2.63848">
        <ele>66</ele>
        <time>2013-04-17T15:04:27</time>
      </trkpt>
      <trkpt lat="47.70246" lon="-2.63864">
        <ele>65</ele>
        <time>2013-04-17T15:04:38</time>
      </trkpt>
      <trkpt lat="47.70247" lon="-2.6388">
        <ele>65</ele>
        <time>2013-04-17T15:04:48</time>
      </trkpt>
      <trkpt lat="47.70248" lon="-2.63896">
        <ele>64</ele>
        <time>2013-04-17T15:04:58</time>
      </trkpt>
      <trkpt lat="47.70248" lon="-2.63918">
        <ele>63</ele>
        <time>2013-04-17T15:05:08</time>
      </trkpt>
      <trkpt lat="47.70248" lon="-2.63934">
        <ele>63</ele>
        <time>2013-04-17T15:05:18</time>
      </trkpt>
      <trkpt lat="47.70244" lon="-2.6395">
        <ele>63</ele>
        <time>2013-04-17T15:05:28</time>
      </trkpt>
      <trkpt lat="47.70234" lon="-2.63962">
        <ele>62</ele>
        <time>2013-04-17T15:05:38</time>
      </trkpt>
      <trkpt lat="47.7023" lon="-2.63966">
        <ele>62</ele>
        <time>2013-04-17T15:05:48</time>
      </trkpt>
      <trkpt lat="47.70222" lon="-2.63971">
        <ele>63</ele>
        <time>2013-04-17T15:05:58</time>
      </trkpt>
      <trkpt lat="47.70211" lon="-2.63977">
        <ele>63</ele>
        <time>2013-04-17T15:06:08</time>
      </trkpt>
      <trkpt lat="47.702" lon="-2.63978">
        <ele>62</ele>
        <time>2013-04-17T15:06:18</time>
      </trkpt>
      <trkpt lat="47.7019" lon="-2.63982">
        <ele>62</ele>
        <time>2013-04-17T15:06:28</time>
      </trkpt>
      <trkpt lat="47.7018" lon="-2.6399">
        <ele>62</ele>
        <time>2013-04-17T15:06:38</time>
      </trkpt>
      <trkpt lat="47.70179" lon="-2.64004">
        <ele>63</ele>
        <time>2013-04-17T15:06:49</time>
      </trkpt>
      <trkpt lat="47.70179" lon="-2.64024">
        <ele>63</ele>
        <time>2013-04-17T15:06:59</time>
      </trkpt>
      <trkpt lat="47.70181" lon="-2.64046">
        <ele>64</ele>
        <time>2013-04-17T15:07:09</time>
      </trkpt>
      <trkpt lat="47.70183" lon="-2.64065">
        <ele>62</ele>
        <time>2013-04-17T15:07:19</time>
      </trkpt>
      <trkpt lat="47.70184" lon="-2.64082">
        <ele>63</ele>
        <time>2013-04-17T15:07:29</time>
      </trkpt>
      <trkpt lat="47.70186" lon="-2.641">
        <ele>62</ele>
        <time>2013-04-17T15:07:39</time>
      </trkpt>
      <trkpt lat="47.7019" lon="-2.64118">
        <ele>63</ele>
        <time>2013-04-17T15:07:49</time>
      </trkpt>
      <trkpt lat="47.70193" lon="-2.6414">
        <ele>63</ele>
        <time>2013-04-17T15:07:59</time>
      </trkpt>
      <trkpt lat="47.70195" lon="-2.64159">
        <ele>62</ele>
        <time>2013-04-17T15:08:09</time>
      </trkpt>
      <trkpt lat="47.70196" lon="-2.6418">
        <ele>65</ele>
        <time>2013-04-17T15:08:19</time>
      </trkpt>
      <trkpt lat="47.70196" lon="-2.64199">
        <ele>64</ele>
        <time>2013-04-17T15:08:29</time>
      </trkpt>
      <trkpt lat="47.70196" lon="-2.64219">
        <ele>64</ele>
        <time>2013-04-17T15:08:39</time>
      </trkpt>
      <trkpt lat="47.70197" lon="-2.64238">
        <ele>64</ele>
        <time>2013-04-17T15:08:50</time>
      </trkpt>
      <trkpt lat="47.70197" lon="-2.64259">
        <ele>64</ele>
        <time>2013-04-17T15:09:00</time>
      </trkpt>
      <trkpt lat="47.70197" lon="-2.64278">
        <ele>65</ele>
        <time>2013-04-17T15:09:10</time>
      </trkpt>
      <trkpt lat="47.70198" lon="-2.64297">
        <ele>66</ele>
        <time>2013-04-17T15:09:20</time>
      </trkpt>
      <trkpt lat="47.70198" lon="-2.64317">
        <ele>65</ele>
        <time>2013-04-17T15:09:30</time>
      </trkpt>
      <trkpt lat="47.70198" lon="-2.64336">
        <ele>67</ele>
        <time>2013-04-17T15:09:40</time>
      </trkpt>
      <trkpt lat="47.70198" lon="-2.64356">
        <ele>66</ele>
        <time>2013-04-17T15:09:50</time>
      </trkpt>
      <trkpt lat="47.70198" lon="-2.64377">
        <ele>65</ele>
        <time>2013-04-17T15:10:00</time>
      </trkpt>
      <trkpt lat="47.70199" lon="-2.64396">
        <ele>67</ele>
        <time>2013-04-17T15:10:10</time>
      </trkpt>
      <trkpt lat="47.70199" lon="-2.64416">
        <ele>66</ele>
        <time>2013-04-17T15:10:20</time>
      </trkpt>
      <trkpt lat="47.70199" lon="-2.64433">
        <ele>66</ele>
        <time>2013-04-17T15:10:30</time>
      </trkpt>
      <trkpt lat="47.702" lon="-2.64453">
        <ele>67</ele>
        <time>2013-04-17T15:10:40</time>
      </trkpt>
      <trkpt lat="47.702" lon="-2.64475">
        <ele>66</ele>
        <time>2013-04-17T15:10:51</time>
      </trkpt>
      <trkpt lat="47.702" lon="-2.64494">
        <ele>66</ele>
        <time>2013-04-17T15:11:01</time>
      </trkpt>
      <trkpt lat="47.702" lon="-2.64514">
        <ele>67</ele>
        <time>2013-04-17T15:11:11</time>
      </trkpt>
      <trkpt lat="47.702" lon="-2.6452">
        <ele>67</ele>
        <time>2013-04-17T15:11:21</time>
      </trkpt>
      <trkpt lat="47.702" lon="-2.64528">
        <ele>67</ele>
        <time>2013-04-17T15:11:31</time>
      </trkpt>
      <trkpt lat="47.702" lon="-2.64543">
        <ele>66</ele>
        <time>2013-04-17T15:11:41</time>
      </trkpt>
      <trkpt lat="47.702" lon="-2.64561">
        <ele>67</ele>
        <time>2013-04-17T15:11:51</time>
      </trkpt>
      <trkpt lat="47.70201" lon="-2.6458">
        <ele>67</ele>
        <time>2013-04-17T15:12:01</time>
      </trkpt>
      <trkpt lat="47.70201" lon="-2.64594">
        <ele>67</ele>
        <time>2013-04-17T15:12:11</time>
      </trkpt>
      <trkpt lat="47.702" lon="-2.6461">
        <ele>67</ele>
        <time>2013-04-17T15:12:21</time>
      </trkpt>
      <trkpt lat="47.70201" lon="-2.64628">
        <ele>67</ele>
        <time>2013-04-17T15:12:31</time>
      </trkpt>
      <trkpt lat="47.70201" lon="-2.64646">
        <ele>67</ele>
        <time>2013-04-17T15:12:41</time>
      </trkpt>
      <trkpt lat="47.70201" lon="-2.64666">
        <ele>68</ele>
        <time>2013-04-17T15:12:52</time>
      </trkpt>
      <trkpt lat="47.70203" lon="-2.64683">
        <ele>69</ele>
        <time>2013-04-17T15:13:02</time>
      </trkpt>
      <trkpt lat="47.70205" lon="-2.64699">
        <ele>68</ele>
        <time>2013-04-17T15:13:12</time>
      </trkpt>
      <trkpt lat="47.70206" lon="-2.64717">
        <ele>68</ele>
        <time>2013-04-17T15:13:22</time>
      </trkpt>
      <trkpt lat="47.70206" lon="-2.64735">
        <ele>67</ele>
        <time>2013-04-17T15:13:32</time>
      </trkpt>
      <trkpt lat="47.70204" lon="-2.64753">
        <ele>67</ele>
        <time>2013-04-17T15:13:42</time>
      </trkpt>
      <trkpt lat="47.70203" lon="-2.64769">
        <ele>68</ele>
        <time>2013-04-17T15:13:52</time>
      </trkpt>
      <trkpt lat="47.70203" lon="-2.64786">
        <ele>70</ele>
        <time>2013-04-17T15:14:02</time>
      </trkpt>
      <trkpt lat="47.70202" lon="-2.64802">
        <ele>69</ele>
        <time>2013-04-17T15:14:12</time>
      </trkpt>
      <trkpt lat="47.70202" lon="-2.64818">
        <ele>69</ele>
        <time>2013-04-17T15:14:22</time>
      </trkpt>
      <trkpt lat="47.70202" lon="-2.64836">
        <ele>69</ele>
        <time>2013-04-17T15:14:32</time>
      </trkpt>
      <trkpt lat="47.70201" lon="-2.64855">
        <ele>70</ele>
        <time>2013-04-17T15:14:42</time>
      </trkpt>
      <trkpt lat="47.70201" lon="-2.64874">
        <ele>70</ele>
        <time>2013-04-17T15:14:52</time>
      </trkpt>
      <trkpt lat="47.702" lon="-2.6489">
        <ele>70</ele>
        <time>2013-04-17T15:15:02</time>
      </trkpt>
      <trkpt lat="47.70199" lon="-2.64908">
        <ele>70</ele>
        <time>2013-04-17T15:15:12</time>
      </trkpt>
      <trkpt lat="47.70198" lon="-2.64929">
        <ele>70</ele>
        <time>2013-04-17T15:15:23</time>
      </trkpt>
      <trkpt lat="47.70197" lon="-2.64945">
        <ele>69</ele>
        <time>2013-04-17T15:15:33</time>
      </trkpt>
      <trkpt lat="47.70195" lon="-2.6496">
        <ele>69</ele>
        <time>2013-04-17T15:15:43</time>
      </trkpt>
      <trkpt lat="47.70192" lon="-2.64977">
        <ele>70</ele>
        <time>2013-04-17T15:15:53</time>
      </trkpt>
      <trkpt lat="47.70191" lon="-2.64994">
        <ele>69</ele>
        <time>2013-04-17T15:16:03</time>
      </trkpt>
      <trkpt lat="47.7019" lon="-2.65012">
        <ele>67</ele>
        <time>2013-04-17T15:16:13</time>
      </trkpt>
      <trkpt lat="47.7019" lon="-2.65029">
        <ele>68</ele>
        <time>2013-04-17T15:16:23</time>
      </trkpt>
      <trkpt lat="47.7019" lon="-2.65047">
        <ele>66</ele>
        <time>2013-04-17T15:16:33</time>
      </trkpt>
      <trkpt lat="47.70198" lon="-2.65055">
        <ele>65</ele>
        <time>2013-04-17T15:16:43</time>
      </trkpt>
      <trkpt lat="47.70203" lon="-2.65061">
        <ele>63</ele>
        <time>2013-04-17T15:16:53</time>
      </trkpt>
      <trkpt lat="47.70208" lon="-2.65066">
        <ele>64</ele>
        <time>2013-04-17T15:17:03</time>
      </trkpt>
      <trkpt lat="47.70219" lon="-2.65068">
        <ele>63</ele>
        <time>2013-04-17T15:17:13</time>
      </trkpt>
      <trkpt lat="47.70228" lon="-2.65069">
        <ele>64</ele>
        <time>2013-04-17T15:17:23</time>
      </trkpt>
      <trkpt lat="47.70237" lon="-2.6507">
        <ele>62</ele>
        <time>2013-04-17T15:17:33</time>
      </trkpt>
      <trkpt lat="47.70248" lon="-2.65072">
        <ele>60</ele>
        <time>2013-04-17T15:17:43</time>
      </trkpt>
      <trkpt lat="47.70256" lon="-2.65072">
        <ele>60</ele>
        <time>2013-04-17T15:17:53</time>
      </trkpt>
      <trkpt lat="47.70262" lon="-2.65073">
        <ele>60</ele>
        <time>2013-04-17T15:18:03</time>
      </trkpt>
      <trkpt lat="47.70267" lon="-2.6507">
        <ele>60</ele>
        <time>2013-04-17T15:18:14</time>
      </trkpt>
      <trkpt lat="47.70268" lon="-2.6507">
        <ele>58</ele>
        <time>2013-04-17T15:18:24</time>
      </trkpt>
      <trkpt lat="47.7027" lon="-2.65074">
        <ele>59</ele>
        <time>2013-04-17T15:18:34</time>
      </trkpt>
      <trkpt lat="47.70274" lon="-2.65084">
        <ele>60</ele>
        <time>2013-04-17T15:18:44</time>
      </trkpt>
      <trkpt lat="47.70274" lon="-2.65085">
        <ele>49</ele>
        <time>2013-04-17T15:18:45</time>
      </trkpt>
    </trkseg>
  </trk>
</gpx>